Observation data for Endee on 07/11/2018      Previous  Date       Current Mesonet Observations  Soil Data  Daily Summary Page  Observations in Plain Language
KEN1 110501Z 18010KT 25/15 A3016 RMK A01 T02480147  RH  053%=      5-min Rain = 0
KEN1 110502Z 18012KT 25/15 A3016 RMK A01 T02480147  RH  053%=      5-min Rain = 0
KEN1 110503Z 18011KT 25/15 A3016 RMK A01 T02480148  RH  053%=      5-min Rain = 0
KEN1 110504Z 18013KT 25/15 A3016 RMK A01 T02480148  RH  054%=      5-min Rain = 0
KEN1 110505Z 18011KT 25/15 A3016 RMK A01 T02470148  RH  054%=      5-min Rain = 0
KEN1 110506Z 18012KT 25/15 A3016 RMK A01 T02480149  RH  054%=      5-min Rain = 0
KEN1 110507Z 18013KT 25/15 A3016 RMK A01 T02470149  RH  054%=      5-min Rain = 0
KEN1 110508Z 18012KT 25/15 A3016 RMK A01 T02480149  RH  054%=      5-min Rain = 0
KEN1 110509Z 19012KT 25/15 A3016 RMK A01 T02480149  RH  054%=      5-min Rain = 0
KEN1 110510Z 18014KT 25/15 A3016 RMK A01 T02480150  RH  054%=      5-min Rain = 0
KEN1 110511Z 18012KT 25/15 A3016 RMK A01 T02480150  RH  054%=      5-min Rain = 0
KEN1 110512Z 18012KT 25/15 A3016 RMK A01 T02490151  RH  054%=      5-min Rain = 0
KEN1 110513Z 18013KT 25/15 A3016 RMK A01 T02480151  RH  055%=      5-min Rain = 0
KEN1 110514Z 18014KT 25/15 A3016 RMK A01 T02480151  RH  055%=      5-min Rain = 0
KEN1 110515Z 18012KT 25/15 A3016 RMK A01 T02480151  RH  055%=      5-min Rain = 0
KEN1 110516Z 19014KT 25/15 A3016 RMK A01 T02480151  RH  055%=      5-min Rain = 0
KEN1 110517Z 18013KT 25/15 A3016 RMK A01 T02480151  RH  055%=      5-min Rain = 0
KEN1 110518Z 19014KT 25/15 A3016 RMK A01 T02480151  RH  055%=      5-min Rain = 0
KEN1 110519Z 19014KT 25/15 A3016 RMK A01 T02480151  RH  055%=      5-min Rain = 0
KEN1 110520Z 19014KT 25/15 A3016 RMK A01 T02480152  RH  055%=      5-min Rain = 0
KEN1 110521Z 18013KT 25/15 A3016 RMK A01 T02480152  RH  055%=      5-min Rain = 0
KEN1 110522Z 18012KT 25/15 A3016 RMK A01 T02480153  RH  055%=      5-min Rain = 0
KEN1 110523Z 19012KT 25/15 A3016 RMK A01 T02470152  RH  055%=      5-min Rain = 0
KEN1 110524Z 18012KT 25/15 A3016 RMK A01 T02470153  RH  056%=      5-min Rain = 0
KEN1 110525Z 18013KT 25/15 A3016 RMK A01 T02460153  RH  056%=      5-min Rain = 0
KEN1 110526Z 19012KT 25/15 A3016 RMK A01 T02460153  RH  056%=      5-min Rain = 0
KEN1 110527Z 19013KT 25/15 A3016 RMK A01 T02460153  RH  056%=      5-min Rain = 0
KEN1 110528Z 19012KT 25/15 A3016 RMK A01 T02460153  RH  056%=      5-min Rain = 0
KEN1 110529Z 19013KT 25/15 A3016 RMK A01 T02460154  RH  056%=      5-min Rain = 0
KEN1 110530Z 19013KT 25/15 A3016 RMK A01 T02460154  RH  056%=      5-min Rain = 0
KEN1 110531Z 19012KT 25/15 A3016 RMK A01 T02460154  RH  056%=      5-min Rain = 0
KEN1 110532Z 19013KT 25/15 A3016 RMK A01 T02470154  RH  056%=      5-min Rain = 0
KEN1 110533Z 19012KT 25/15 A3016 RMK A01 T02460154  RH  057%=      5-min Rain = 0
KEN1 110534Z 19013KT 25/15 A3016 RMK A01 T02460154  RH  057%=      5-min Rain = 0
KEN1 110535Z 19014KT 25/15 A3016 RMK A01 T02460154  RH  057%=      5-min Rain = 0
KEN1 110536Z 19014KT 25/15 A3016 RMK A01 T02460154  RH  057%=      5-min Rain = 0
KEN1 110537Z 18014KT 25/16 A3016 RMK A01 T02460155  RH  057%=      5-min Rain = 0
KEN1 110538Z 18013KT 25/16 A3016 RMK A01 T02460155  RH  057%=      5-min Rain = 0
KEN1 110539Z 18013KT 25/16 A3016 RMK A01 T02460155  RH  057%=      5-min Rain = 0
KEN1 110540Z 18011KT 25/16 A3016 RMK A01 T02460155  RH  057%=      5-min Rain = 0
KEN1 110541Z 18012KT 25/16 A3016 RMK A01 T02450155  RH  057%=      5-min Rain = 0
KEN1 110542Z 18010KT 25/16 A3016 RMK A01 T02450155  RH  057%=      5-min Rain = 0
KEN1 110543Z 18012KT 24/16 A3017 RMK A01 T02440155  RH  058%=      5-min Rain = 0
KEN1 110544Z 18012KT 24/16 A3017 RMK A01 T02440156  RH  058%=      5-min Rain = 0
KEN1 110545Z 18011KT 24/16 A3017 RMK A01 T02430155  RH  058%=      5-min Rain = 0
KEN1 110546Z 18012KT 24/16 A3017 RMK A01 T02430155  RH  058%=      5-min Rain = 0
KEN1 110547Z 18012KT 24/16 A3017 RMK A01 T02430156  RH  058%=      5-min Rain = 0
KEN1 110548Z 18012KT 24/16 A3017 RMK A01 T02430156  RH  058%=      5-min Rain = 0
KEN1 110549Z 18012KT 24/16 A3017 RMK A01 T02430156  RH  058%=      5-min Rain = 0
KEN1 110550Z 18011KT 24/16 A3017 RMK A01 T02430156  RH  058%=      5-min Rain = 0
KEN1 110551Z 18012KT 24/16 A3017 RMK A01 T02420156  RH  058%=      5-min Rain = 0
KEN1 110552Z 18012KT 24/16 A3017 RMK A01 T02420156  RH  059%=      5-min Rain = 0
KEN1 110553Z 18011KT 24/16 A3017 RMK A01 T02420156  RH  059%=      5-min Rain = 0
KEN1 110554Z 18011KT 24/16 A3017 RMK A01 T02410156  RH  059%=      5-min Rain = 0
KEN1 110555Z 18011KT 24/16 A3017 RMK A01 T02410156  RH  059%=      5-min Rain = 0
KEN1 110556Z 18011KT 24/16 A3017 RMK A01 T02410156  RH  059%=      5-min Rain = 0
KEN1 110557Z 18010KT 24/16 A3017 RMK A01 T02410156  RH  059%=      5-min Rain = 0
KEN1 110558Z 18010KT 24/16 A3017 RMK A01 T02400156  RH  059%=      5-min Rain = 0
KEN1 110559Z 18010KT 24/16 A3017 RMK A01 T02400156  RH  059%=      5-min Rain = 0
KEN1 110600Z 18010KT 24/16 A3017 RMK A01 T02400156  RH  059%=      5-min Rain = 0
KEN1 110601Z 18010KT 24/16 A3017 RMK A01 T02400156  RH  060%=      5-min Rain = 0
KEN1 110602Z 18011KT 24/16 A3017 RMK A01 T02390156  RH  060%=      5-min Rain = 0
KEN1 110603Z 19011KT 24/16 A3017 RMK A01 T02390156  RH  060%=      5-min Rain = 0
KEN1 110604Z 19010KT 24/16 A3017 RMK A01 T02390156  RH  059%=      5-min Rain = 0
KEN1 110605Z 19010KT 24/16 A3017 RMK A01 T02390156  RH  059%=      5-min Rain = 0
KEN1 110606Z 19011KT 24/16 A3017 RMK A01 T02400156  RH  060%=      5-min Rain = 0
KEN1 110607Z 19011KT 24/16 A3017 RMK A01 T02400156  RH  059%=      5-min Rain = 0
KEN1 110608Z 19010KT 24/16 A3017 RMK A01 T02400156  RH  059%=      5-min Rain = 0
KEN1 110609Z 18010KT 24/16 A3017 RMK A01 T02390156  RH  060%=      5-min Rain = 0
KEN1 110610Z 18011KT 24/16 A3017 RMK A01 T02380155  RH  060%=      5-min Rain = 0
KEN1 110611Z 18012KT 24/16 A3017 RMK A01 T02380155  RH  060%=      5-min Rain = 0
KEN1 110612Z 18010KT 24/16 A3017 RMK A01 T02390155  RH  059%=      5-min Rain = 0
KEN1 110613Z 18011KT 24/16 A3017 RMK A01 T02390155  RH  060%=      5-min Rain = 0
KEN1 110614Z 19011KT 24/16 A3017 RMK A01 T02380155  RH  060%=      5-min Rain = 0
KEN1 110615Z 18011KT 24/16 A3017 RMK A01 T02380155  RH  059%=      5-min Rain = 0
KEN1 110616Z 19011KT 24/16 A3017 RMK A01 T02380155  RH  059%=      5-min Rain = 0
KEN1 110617Z 19011KT 24/15 A3017 RMK A01 T02380154  RH  059%=      5-min Rain = 0
KEN1 110618Z 19011KT 24/15 A3017 RMK A01 T02390154  RH  059%=      5-min Rain = 0
KEN1 110619Z 20011KT 24/15 A3017 RMK A01 T02390154  RH  059%=      5-min Rain = 0
KEN1 110620Z 19011KT 24/15 A3017 RMK A01 T02390154  RH  059%=      5-min Rain = 0
KEN1 110621Z 19010KT 24/15 A3017 RMK A01 T02390154  RH  059%=      5-min Rain = 0
KEN1 110622Z 19011KT 24/15 A3017 RMK A01 T02380154  RH  059%=      5-min Rain = 0
KEN1 110623Z 19012KT 24/15 A3017 RMK A01 T02380154  RH  059%=      5-min Rain = 0
KEN1 110624Z 20011KT 24/15 A3017 RMK A01 T02380154  RH  059%=      5-min Rain = 0
KEN1 110625Z 19011KT 24/15 A3017 RMK A01 T02380154  RH  059%=      5-min Rain = 0
KEN1 110626Z 19010KT 24/15 A3017 RMK A01 T02380154  RH  059%=      5-min Rain = 0
KEN1 110627Z 19010KT 24/15 A3017 RMK A01 T02380154  RH  059%=      5-min Rain = 0
KEN1 110628Z 20011KT 24/15 A3017 RMK A01 T02380154  RH  059%=      5-min Rain = 0
KEN1 110629Z 19012KT 24/15 A3017 RMK A01 T02370153  RH  059%=      5-min Rain = 0
KEN1 110630Z 19011KT 24/15 A3017 RMK A01 T02380153  RH  059%=      5-min Rain = 0
KEN1 110631Z 19012KT 24/15 A3017 RMK A01 T02380153  RH  059%=      5-min Rain = 0
KEN1 110632Z 19011KT 24/15 A3017 RMK A01 T02380153  RH  059%=      5-min Rain = 0
KEN1 110633Z 20011KT 24/15 A3017 RMK A01 T02380153  RH  059%=      5-min Rain = 0
KEN1 110634Z 20010KT 24/15 A3017 RMK A01 T02380153  RH  059%=      5-min Rain = 0
KEN1 110635Z 20010KT 24/15 A3017 RMK A01 T02370153  RH  059%=      5-min Rain = 0
KEN1 110636Z 20011KT 24/15 A3016 RMK A01 T02370153  RH  059%=      5-min Rain = 0
KEN1 110637Z 20010KT 24/15 A3016 RMK A01 T02370153  RH  059%=      5-min Rain = 0
KEN1 110638Z 20009KT 24/15 A3017 RMK A01 T02370153  RH  059%=      5-min Rain = 0
KEN1 110639Z 20009KT 24/15 A3017 RMK A01 T02360153  RH  059%=      5-min Rain = 0
KEN1 110640Z 20009KT 24/15 A3016 RMK A01 T02360153  RH  060%=      5-min Rain = 0
KEN1 110641Z 19008KT 24/15 A3017 RMK A01 T02350153  RH  060%=      5-min Rain = 0
KEN1 110642Z 19008KT 24/15 A3017 RMK A01 T02350153  RH  060%=      5-min Rain = 0
KEN1 110643Z 19007KT 23/15 A3016 RMK A01 T02340153  RH  060%=      5-min Rain = 0
KEN1 110644Z 19007KT 23/15 A3016 RMK A01 T02330152  RH  060%=      5-min Rain = 0
KEN1 110645Z 18008KT 23/15 A3016 RMK A01 T02330152  RH  060%=      5-min Rain = 0
KEN1 110646Z 18008KT 23/15 A3017 RMK A01 T02330152  RH  060%=      5-min Rain = 0
KEN1 110647Z 19009KT 23/15 A3017 RMK A01 T02330152  RH  060%=      5-min Rain = 0
KEN1 110648Z 19008KT 23/15 A3017 RMK A01 T02330152  RH  060%=      5-min Rain = 0
KEN1 110649Z 18008KT 23/15 A3017 RMK A01 T02330152  RH  060%=      5-min Rain = 0
KEN1 110650Z 18009KT 23/15 A3017 RMK A01 T02330152  RH  060%=      5-min Rain = 0
KEN1 110651Z 19009KT 23/15 A3017 RMK A01 T02330152  RH  060%=      5-min Rain = 0
KEN1 110652Z 18008KT 23/15 A3017 RMK A01 T02340152  RH  060%=      5-min Rain = 0
KEN1 110653Z 19008KT 23/15 A3017 RMK A01 T02340153  RH  060%=      5-min Rain = 0
KEN1 110654Z 18008KT 23/15 A3017 RMK A01 T02340153  RH  060%=      5-min Rain = 0
KEN1 110655Z 19008KT 23/15 A3017 RMK A01 T02340153  RH  060%=      5-min Rain = 0
KEN1 110656Z 19008KT 23/15 A3017 RMK A01 T02330153  RH  061%=      5-min Rain = 0
KEN1 110657Z 19008KT 23/15 A3017 RMK A01 T02330153  RH  061%=      5-min Rain = 0
KEN1 110658Z 19008KT 23/15 A3017 RMK A01 T02320153  RH  061%=      5-min Rain = 0
KEN1 110659Z 19008KT 23/15 A3017 RMK A01 T02320153  RH  061%=      5-min Rain = 0
KEN1 110700Z 19008KT 23/15 A3016 RMK A01 T02320154  RH  062%=      5-min Rain = 0
KEN1 110701Z 18008KT 23/15 A3016 RMK A01 T02320154  RH  062%=      5-min Rain = 0
KEN1 110702Z 19009KT 23/15 A3016 RMK A01 T02320154  RH  062%=      5-min Rain = 0
KEN1 110703Z 19009KT 23/15 A3016 RMK A01 T02330154  RH  061%=      5-min Rain = 0
KEN1 110704Z 19010KT 23/15 A3016 RMK A01 T02330154  RH  061%=      5-min Rain = 0
KEN1 110705Z 19009KT 23/15 A3016 RMK A01 T02340154  RH  061%=      5-min Rain = 0
KEN1 110706Z 19010KT 24/15 A3016 RMK A01 T02350154  RH  061%=      5-min Rain = 0
KEN1 110707Z 18010KT 24/15 A3016 RMK A01 T02350154  RH  060%=      5-min Rain = 0
KEN1 110708Z 18009KT 24/15 A3016 RMK A01 T02350154  RH  060%=      5-min Rain = 0
KEN1 110709Z 18009KT 24/16 A3016 RMK A01 T02350155  RH  061%=      5-min Rain = 0
KEN1 110710Z 17008KT 23/15 A3016 RMK A01 T02340154  RH  061%=      5-min Rain = 0
KEN1 110711Z 17008KT 23/15 A3017 RMK A01 T02320154  RH  062%=      5-min Rain = 0
KEN1 110712Z 17008KT 23/15 A3016 RMK A01 T02310154  RH  062%=      5-min Rain = 0
KEN1 110713Z 17008KT 23/15 A3016 RMK A01 T02300154  RH  062%=      5-min Rain = 0
KEN1 110714Z 18008KT 23/15 A3016 RMK A01 T02290154  RH  063%=      5-min Rain = 0
KEN1 110715Z 18008KT 23/15 A3016 RMK A01 T02290154  RH  063%=      5-min Rain = 0
KEN1 110716Z 18009KT 23/15 A3017 RMK A01 T02280154  RH  063%=      5-min Rain = 0
KEN1 110717Z 18009KT 23/15 A3016 RMK A01 T02280154  RH  063%=      5-min Rain = 0
KEN1 110718Z 18008KT 23/15 A3016 RMK A01 T02270154  RH  063%=      5-min Rain = 0
KEN1 110719Z 18008KT 23/15 A3016 RMK A01 T02270154  RH  063%=      5-min Rain = 0
KEN1 110720Z 18008KT 23/15 A3016 RMK A01 T02260154  RH  064%=      5-min Rain = 0
KEN1 110721Z 18009KT 23/15 A3016 RMK A01 T02260154  RH  064%=      5-min Rain = 0
KEN1 110722Z 18009KT 23/15 A3016 RMK A01 T02250154  RH  064%=      5-min Rain = 0
KEN1 110723Z 18009KT 23/15 A3016 RMK A01 T02250154  RH  064%=      5-min Rain = 0
KEN1 110724Z 18009KT 23/15 A3016 RMK A01 T02250154  RH  064%=      5-min Rain = 0
KEN1 110725Z 18008KT 23/15 A3016 RMK A01 T02250154  RH  064%=      5-min Rain = 0
KEN1 110726Z 18009KT 23/15 A3016 RMK A01 T02250154  RH  064%=      5-min Rain = 0
KEN1 110727Z 18009KT 23/15 A3016 RMK A01 T02250154  RH  064%=      5-min Rain = 0
KEN1 110728Z 18009KT 22/15 A3016 RMK A01 T02240154  RH  064%=      5-min Rain = 0
KEN1 110729Z 17009KT 22/15 A3016 RMK A01 T02240154  RH  064%=      5-min Rain = 0
KEN1 110730Z 18009KT 22/15 A3016 RMK A01 T02230154  RH  065%=      5-min Rain = 0
KEN1 110731Z 17009KT 22/15 A3016 RMK A01 T02230154  RH  065%=      5-min Rain = 0
KEN1 110732Z 17010KT 22/15 A3016 RMK A01 T02230154  RH  065%=      5-min Rain = 0
KEN1 110733Z 18009KT 22/15 A3016 RMK A01 T02240154  RH  065%=      5-min Rain = 0
KEN1 110734Z 17010KT 22/15 A3016 RMK A01 T02240154  RH  065%=      5-min Rain = 0
KEN1 110735Z 17009KT 22/15 A3016 RMK A01 T02230154  RH  065%=      5-min Rain = 0
KEN1 110736Z 17009KT 22/15 A3016 RMK A01 T02230154  RH  065%=      5-min Rain = 0
KEN1 110737Z 17010KT 22/15 A3016 RMK A01 T02230154  RH  065%=      5-min Rain = 0
KEN1 110738Z 17009KT 22/15 A3016 RMK A01 T02230154  RH  065%=      5-min Rain = 0
KEN1 110739Z 17009KT 22/15 A3016 RMK A01 T02220154  RH  065%=      5-min Rain = 0
KEN1 110740Z 17009KT 22/15 A3016 RMK A01 T02220154  RH  065%=      5-min Rain = 0
KEN1 110741Z 17010KT 22/15 A3016 RMK A01 T02220154  RH  065%=      5-min Rain = 0
KEN1 110742Z 17009KT 22/15 A3016 RMK A01 T02220154  RH  065%=      5-min Rain = 0
KEN1 110743Z 17009KT 22/15 A3016 RMK A01 T02220154  RH  065%=      5-min Rain = 0
KEN1 110744Z 17009KT 22/15 A3016 RMK A01 T02220154  RH  065%=      5-min Rain = 0
KEN1 110745Z 17008KT 22/15 A3016 RMK A01 T02220154  RH  066%=      5-min Rain = 0
KEN1 110746Z 17009KT 22/15 A3016 RMK A01 T02210154  RH  066%=      5-min Rain = 0
KEN1 110747Z 17009KT 22/15 A3016 RMK A01 T02210154  RH  066%=      5-min Rain = 0
KEN1 110748Z 18009KT 22/15 A3016 RMK A01 T02210154  RH  066%=      5-min Rain = 0
KEN1 110749Z 18010KT 22/15 A3016 RMK A01 T02200154  RH  066%=      5-min Rain = 0
KEN1 110750Z 18010KT 22/15 A3016 RMK A01 T02200154  RH  066%=      5-min Rain = 0
KEN1 110751Z 18010KT 22/15 A3016 RMK A01 T02210154  RH  066%=      5-min Rain = 0
KEN1 110752Z 18010KT 22/15 A3016 RMK A01 T02210154  RH  066%=      5-min Rain = 0
KEN1 110753Z 18010KT 22/15 A3016 RMK A01 T02210154  RH  066%=      5-min Rain = 0
KEN1 110754Z 18010KT 22/15 A3016 RMK A01 T02210154  RH  066%=      5-min Rain = 0
KEN1 110755Z 18010KT 22/15 A3016 RMK A01 T02210154  RH  066%=      5-min Rain = 0
KEN1 110756Z 18010KT 22/15 A3016 RMK A01 T02210154  RH  066%=      5-min Rain = 0
KEN1 110757Z 18010KT 22/15 A3016 RMK A01 T02210154  RH  066%=      5-min Rain = 0
KEN1 110758Z 18010KT 22/15 A3016 RMK A01 T02210154  RH  066%=      5-min Rain = 0
KEN1 110759Z 18010KT 22/15 A3016 RMK A01 T02210154  RH  066%=      5-min Rain = 0
KEN1 110800Z 18010KT 22/16 A3016 RMK A01 T02220155  RH  066%=      5-min Rain = 0
KEN1 110801Z 18010KT 22/16 A3016 RMK A01 T02220155  RH  066%=      5-min Rain = 0
KEN1 110802Z 18009KT 22/16 A3016 RMK A01 T02220155  RH  066%=      5-min Rain = 0
KEN1 110803Z 18010KT 22/16 A3016 RMK A01 T02210155  RH  066%=      5-min Rain = 0
KEN1 110804Z 18010KT 22/16 A3016 RMK A01 T02210155  RH  066%=      5-min Rain = 0
KEN1 110805Z 18009KT 22/16 A3016 RMK A01 T02210155  RH  066%=      5-min Rain = 0
KEN1 110806Z 18010KT 22/16 A3016 RMK A01 T02210155  RH  066%=      5-min Rain = 0
KEN1 110807Z 18009KT 22/16 A3016 RMK A01 T02210155  RH  067%=      5-min Rain = 0
KEN1 110808Z 18009KT 22/16 A3015 RMK A01 T02200155  RH  067%=      5-min Rain = 0
KEN1 110809Z 17009KT 22/16 A3015 RMK A01 T02200156  RH  067%=      5-min Rain = 0
KEN1 110810Z 18009KT 22/16 A3015 RMK A01 T02200156  RH  067%=      5-min Rain = 0
KEN1 110811Z 18009KT 22/16 A3016 RMK A01 T02190155  RH  067%=      5-min Rain = 0
KEN1 110812Z 18008KT 22/16 A3015 RMK A01 T02190155  RH  067%=      5-min Rain = 0
KEN1 110813Z 18009KT 22/16 A3015 RMK A01 T02190156  RH  067%=      5-min Rain = 0
KEN1 110814Z 18009KT 22/16 A3015 RMK A01 T02190156  RH  067%=      5-min Rain = 0
KEN1 110815Z 18009KT 22/16 A3015 RMK A01 T02190156  RH  067%=      5-min Rain = 0
KEN1 110816Z 18010KT 22/16 A3015 RMK A01 T02190156  RH  068%=      5-min Rain = 0
KEN1 110817Z 18010KT 22/16 A3015 RMK A01 T02200156  RH  067%=      5-min Rain = 0
KEN1 110818Z 18009KT 22/16 A3015 RMK A01 T02200156  RH  067%=      5-min Rain = 0
KEN1 110819Z 18009KT 22/16 A3016 RMK A01 T02200157  RH  067%=      5-min Rain = 0
KEN1 110820Z 18009KT 22/16 A3016 RMK A01 T02190157  RH  068%=      5-min Rain = 0
KEN1 110821Z 18009KT 22/16 A3016 RMK A01 T02190157  RH  068%=      5-min Rain = 0
KEN1 110822Z 18008KT 22/16 A3016 RMK A01 T02190157  RH  068%=      5-min Rain = 0
KEN1 110823Z 18008KT 22/16 A3016 RMK A01 T02180157  RH  068%=      5-min Rain = 0
KEN1 110824Z 18009KT 22/16 A3016 RMK A01 T02180157  RH  068%=      5-min Rain = 0
KEN1 110825Z 19008KT 22/16 A3015 RMK A01 T02170157  RH  069%=      5-min Rain = 0
KEN1 110826Z 19008KT 22/16 A3015 RMK A01 T02170157  RH  069%=      5-min Rain = 0
KEN1 110827Z 19008KT 22/16 A3015 RMK A01 T02160157  RH  069%=      5-min Rain = 0
KEN1 110828Z 19007KT 22/16 A3015 RMK A01 T02160157  RH  069%=      5-min Rain = 0
KEN1 110829Z 19007KT 22/16 A3016 RMK A01 T02150157  RH  069%=      5-min Rain = 0
KEN1 110830Z 18007KT 22/16 A3016 RMK A01 T02160158  RH  070%=      5-min Rain = 0
KEN1 110831Z 18007KT 22/16 A3016 RMK A01 T02150158  RH  070%=      5-min Rain = 0
KEN1 110832Z 18007KT 22/16 A3016 RMK A01 T02150158  RH  070%=      5-min Rain = 0
KEN1 110833Z 18007KT 21/16 A3016 RMK A01 T02140158  RH  070%=      5-min Rain = 0
KEN1 110834Z 18007KT 21/16 A3016 RMK A01 T02130158  RH  070%=      5-min Rain = 0
KEN1 110835Z 18007KT 21/16 A3016 RMK A01 T02130158  RH  071%=      5-min Rain = 0
KEN1 110836Z 18007KT 21/16 A3016 RMK A01 T02130158  RH  071%=      5-min Rain = 0
KEN1 110837Z 18007KT 21/16 A3016 RMK A01 T02120158  RH  071%=      5-min Rain = 0
KEN1 110838Z 18006KT 21/16 A3016 RMK A01 T02120158  RH  071%=      5-min Rain = 0
KEN1 110839Z 17007KT 21/16 A3016 RMK A01 T02110158  RH  072%=      5-min Rain = 0
KEN1 110840Z 17006KT 21/16 A3016 RMK A01 T02100158  RH  072%=      5-min Rain = 0
KEN1 110841Z 17006KT 21/16 A3016 RMK A01 T02100158  RH  072%=      5-min Rain = 0
KEN1 110842Z 17006KT 21/16 A3015 RMK A01 T02100159  RH  073%=      5-min Rain = 0
KEN1 110843Z 17006KT 21/16 A3015 RMK A01 T02090158  RH  073%=      5-min Rain = 0
KEN1 110844Z 18006KT 21/16 A3015 RMK A01 T02080158  RH  073%=      5-min Rain = 0
KEN1 110845Z 17005KT 21/16 A3015 RMK A01 T02080159  RH  073%=      5-min Rain = 0
KEN1 110846Z 17005KT 21/16 A3015 RMK A01 T02080159  RH  073%=      5-min Rain = 0
KEN1 110847Z 17005KT 21/16 A3015 RMK A01 T02080159  RH  073%=      5-min Rain = 0
KEN1 110848Z 17005KT 21/16 A3015 RMK A01 T02080159  RH  074%=      5-min Rain = 0
KEN1 110849Z 16005KT 21/16 A3015 RMK A01 T02070159  RH  074%=      5-min Rain = 0
KEN1 110850Z 17005KT 21/16 A3015 RMK A01 T02070159  RH  074%=      5-min Rain = 0
KEN1 110851Z 17004KT 21/16 A3015 RMK A01 T02070159  RH  074%=      5-min Rain = 0
KEN1 110852Z 17004KT 21/16 A3015 RMK A01 T02070159  RH  074%=      5-min Rain = 0
KEN1 110853Z 17004KT 21/16 A3015 RMK A01 T02060159  RH  074%=      5-min Rain = 0
KEN1 110854Z 17004KT 21/16 A3015 RMK A01 T02060159  RH  075%=      5-min Rain = 0
KEN1 110855Z 17004KT 21/16 A3016 RMK A01 T02060159  RH  075%=      5-min Rain = 0
KEN1 110856Z 17004KT 21/16 A3016 RMK A01 T02060159  RH  075%=      5-min Rain = 0
KEN1 110857Z 17004KT 21/16 A3016 RMK A01 T02060160  RH  075%=      5-min Rain = 0
KEN1 110858Z 18003KT 21/16 A3016 RMK A01 T02060160  RH  075%=      5-min Rain = 0
KEN1 110859Z 19003KT 21/16 A3016 RMK A01 T02050160  RH  075%=      5-min Rain = 0
KEN1 110900Z 20003KT 21/16 A3016 RMK A01 T02050160  RH  075%=      5-min Rain = 0
KEN1 110901Z 20002KT 21/16 A3016 RMK A01 T02050160  RH  075%=      5-min Rain = 0
KEN1 110902Z 19002KT 21/16 A3016 RMK A01 T02050160  RH  075%=      5-min Rain = 0
KEN1 110903Z 18003KT 21/16 A3016 RMK A01 T02050160  RH  075%=      5-min Rain = 0
KEN1 110904Z 18003KT 21/16 A3016 RMK A01 T02050160  RH  075%=      5-min Rain = 0
KEN1 110905Z 18003KT 21/16 A3016 RMK A01 T02050160  RH  075%=      5-min Rain = 0
KEN1 110906Z 19004KT 21/16 A3016 RMK A01 T02050160  RH  075%=      5-min Rain = 0
KEN1 110907Z 19004KT 21/16 A3016 RMK A01 T02060160  RH  075%=      5-min Rain = 0
KEN1 110908Z 19004KT 21/16 A3016 RMK A01 T02060160  RH  075%=      5-min Rain = 0
KEN1 110909Z 19003KT 21/16 A3016 RMK A01 T02060160  RH  075%=      5-min Rain = 0
KEN1 110910Z 19002KT 21/16 A3016 RMK A01 T02070161  RH  075%=      5-min Rain = 0
KEN1 110911Z 18001KT 21/16 A3016 RMK A01 T02070161  RH  074%=      5-min Rain = 0
KEN1 110912Z 20001KT 21/16 A3016 RMK A01 T02080161  RH  074%=      5-min Rain = 0
KEN1 110913Z 18001KT 21/16 A3016 RMK A01 T02080161  RH  074%=      5-min Rain = 0
KEN1 110914Z 18001KT 21/16 A3016 RMK A01 T02080161  RH  075%=      5-min Rain = 0
KEN1 110915Z 15001KT 21/16 A3016 RMK A01 T02080161  RH  075%=      5-min Rain = 0
KEN1 110916Z 15001KT 21/16 A3016 RMK A01 T02070161  RH  074%=      5-min Rain = 0
KEN1 110917Z 16002KT 21/16 A3016 RMK A01 T02080161  RH  074%=      5-min Rain = 0
KEN1 110918Z 14002KT 21/16 A3016 RMK A01 T02070160  RH  074%=      5-min Rain = 0
KEN1 110919Z 14002KT 21/16 A3016 RMK A01 T02060160  RH  075%=      5-min Rain = 0
KEN1 110920Z 15002KT 21/16 A3016 RMK A01 T02050160  RH  075%=      5-min Rain = 0
KEN1 110921Z 15003KT 21/16 A3016 RMK A01 T02050160  RH  075%=      5-min Rain = 0
KEN1 110922Z 14002KT 21/16 A3016 RMK A01 T02050160  RH  076%=      5-min Rain = 0
KEN1 110923Z 14002KT 21/16 A3016 RMK A01 T02050160  RH  076%=      5-min Rain = 0
KEN1 110924Z 13002KT 21/16 A3016 RMK A01 T02050160  RH  075%=      5-min Rain = 0
KEN1 110925Z 12003KT 21/16 A3016 RMK A01 T02060160  RH  075%=      5-min Rain = 0
KEN1 110926Z 13003KT 21/16 A3016 RMK A01 T02060160  RH  075%=      5-min Rain = 0
KEN1 110927Z 12002KT 21/16 A3016 RMK A01 T02060160  RH  075%=      5-min Rain = 0
KEN1 110928Z 12002KT 21/16 A3016 RMK A01 T02070160  RH  074%=      5-min Rain = 0
KEN1 110929Z 13002KT 21/16 A3016 RMK A01 T02060159  RH  074%=      5-min Rain = 0
KEN1 110930Z 14003KT 21/16 A3016 RMK A01 T02060159  RH  074%=      5-min Rain = 0
KEN1 110931Z 15002KT 21/16 A3016 RMK A01 T02060159  RH  074%=      5-min Rain = 0
KEN1 110932Z 16002KT 21/16 A3016 RMK A01 T02070160  RH  074%=      5-min Rain = 0
KEN1 110933Z 15002KT 21/16 A3016 RMK A01 T02070160  RH  074%=      5-min Rain = 0
KEN1 110934Z 15001KT 21/16 A3016 RMK A01 T02080160  RH  074%=      5-min Rain = 0
KEN1 110935Z 16002KT 21/16 A3016 RMK A01 T02080160  RH  074%=      5-min Rain = 0
KEN1 110936Z 14002KT 21/16 A3016 RMK A01 T02080160  RH  074%=      5-min Rain = 0
KEN1 110937Z 16002KT 21/16 A3016 RMK A01 T02080160  RH  074%=      5-min Rain = 0
KEN1 110938Z 19003KT 21/16 A3016 RMK A01 T02080160  RH  074%=      5-min Rain = 0
KEN1 110939Z 18004KT 21/16 A3016 RMK A01 T02080160  RH  074%=      5-min Rain = 0
KEN1 110940Z 18004KT 21/16 A3016 RMK A01 T02090161  RH  074%=      5-min Rain = 0
KEN1 110941Z 17003KT 21/16 A3016 RMK A01 T02110161  RH  073%=      5-min Rain = 0
KEN1 110942Z 18005KT 21/16 A3016 RMK A01 T02110160  RH  073%=      5-min Rain = 0
KEN1 110943Z 16004KT 21/16 A3016 RMK A01 T02110161  RH  073%=      5-min Rain = 0
KEN1 110944Z 17005KT 21/16 A3016 RMK A01 T02110160  RH  073%=      5-min Rain = 0
KEN1 110945Z 16004KT 21/16 A3016 RMK A01 T02110160  RH  073%=      5-min Rain = 0
KEN1 110946Z 17005KT 21/16 A3016 RMK A01 T02120160  RH  073%=      5-min Rain = 0
KEN1 110947Z 17005KT 21/16 A3016 RMK A01 T02110160  RH  072%=      5-min Rain = 0
KEN1 110948Z 17005KT 21/16 A3016 RMK A01 T02110160  RH  073%=      5-min Rain = 0
KEN1 110949Z 17005KT 21/16 A3016 RMK A01 T02110160  RH  073%=      5-min Rain = 0
KEN1 110950Z 16005KT 21/16 A3016 RMK A01 T02110160  RH  072%=      5-min Rain = 0
KEN1 110951Z 17005KT 21/16 A3016 RMK A01 T02110160  RH  072%=      5-min Rain = 0
KEN1 110952Z 18007KT 21/16 A3016 RMK A01 T02120159  RH  072%=      5-min Rain = 0
KEN1 110953Z 19007KT 21/16 A3016 RMK A01 T02120159  RH  072%=      5-min Rain = 0
KEN1 110954Z 19008KT 21/16 A3016 RMK A01 T02130160  RH  072%=      5-min Rain = 0
KEN1 110955Z 18009KT 21/16 A3016 RMK A01 T02140159  RH  071%=      5-min Rain = 0
KEN1 110956Z 19008KT 21/16 A3016 RMK A01 T02140159  RH  071%=      5-min Rain = 0
KEN1 110957Z 19008KT 22/16 A3016 RMK A01 T02150159  RH  071%=      5-min Rain = 0
KEN1 110958Z 19009KT 21/16 A3016 RMK A01 T02140159  RH  071%=      5-min Rain = 0
KEN1 110959Z 19008KT 22/16 A3016 RMK A01 T02150159  RH  070%=      5-min Rain = 0
KEN1 111000Z 20008KT 21/16 A3016 RMK A01 T02140159  RH  070%=      5-min Rain = 0
KEN1 111001Z 20008KT 21/16 A3016 RMK A01 T02140159  RH  071%=      5-min Rain = 0
KEN1 111002Z 19009KT 21/16 A3016 RMK A01 T02140158  RH  071%=      5-min Rain = 0
KEN1 111003Z 19009KT 21/16 A3016 RMK A01 T02140159  RH  071%=      5-min Rain = 0
KEN1 111004Z 19009KT 21/16 A3016 RMK A01 T02140158  RH  071%=      5-min Rain = 0
KEN1 111005Z 19010KT 21/16 A3016 RMK A01 T02140158  RH  071%=      5-min Rain = 0
KEN1 111006Z 18009KT 21/16 A3016 RMK A01 T02130158  RH  071%=      5-min Rain = 0
KEN1 111007Z 18008KT 21/16 A3016 RMK A01 T02130159  RH  071%=      5-min Rain = 0
KEN1 111008Z 18008KT 21/16 A3016 RMK A01 T02120158  RH  072%=      5-min Rain = 0
KEN1 111009Z 18008KT 21/16 A3016 RMK A01 T02110158  RH  072%=      5-min Rain = 0
KEN1 111010Z 17007KT 21/16 A3016 RMK A01 T02100158  RH  072%=      5-min Rain = 0
KEN1 111011Z 17007KT 21/16 A3016 RMK A01 T02090158  RH  072%=      5-min Rain = 0
KEN1 111012Z 17007KT 21/16 A3016 RMK A01 T02090158  RH  073%=      5-min Rain = 0
KEN1 111013Z 17008KT 21/16 A3016 RMK A01 T02090158  RH  073%=      5-min Rain = 0
KEN1 111014Z 17008KT 21/16 A3016 RMK A01 T02080158  RH  073%=      5-min Rain = 0
KEN1 111015Z 17008KT 21/16 A3016 RMK A01 T02080158  RH  073%=      5-min Rain = 0
KEN1 111016Z 17008KT 21/16 A3016 RMK A01 T02080158  RH  073%=      5-min Rain = 0
KEN1 111017Z 18008KT 21/16 A3016 RMK A01 T02080158  RH  073%=      5-min Rain = 0
KEN1 111018Z 18008KT 21/16 A3016 RMK A01 T02070157  RH  073%=      5-min Rain = 0
KEN1 111019Z 18007KT 21/16 A3016 RMK A01 T02080158  RH  073%=      5-min Rain = 0
KEN1 111020Z 17008KT 21/16 A3016 RMK A01 T02080157  RH  073%=      5-min Rain = 0
KEN1 111021Z 17008KT 21/16 A3016 RMK A01 T02090157  RH  072%=      5-min Rain = 0
KEN1 111022Z 17008KT 21/16 A3015 RMK A01 T02090157  RH  072%=      5-min Rain = 0
KEN1 111023Z 17007KT 21/16 A3015 RMK A01 T02090157  RH  072%=      5-min Rain = 0
KEN1 111024Z 18008KT 21/16 A3015 RMK A01 T02090157  RH  072%=      5-min Rain = 0
KEN1 111025Z 17007KT 21/16 A3015 RMK A01 T02080157  RH  072%=      5-min Rain = 0
KEN1 111026Z 18007KT 21/16 A3015 RMK A01 T02080157  RH  072%=      5-min Rain = 0
KEN1 111027Z 18008KT 21/16 A3015 RMK A01 T02080157  RH  072%=      5-min Rain = 0
KEN1 111028Z 19008KT 21/16 A3015 RMK A01 T02080157  RH  072%=      5-min Rain = 0
KEN1 111029Z 18007KT 21/16 A3016 RMK A01 T02080157  RH  072%=      5-min Rain = 0
KEN1 111030Z 18007KT 21/16 A3016 RMK A01 T02080157  RH  072%=      5-min Rain = 0
KEN1 111031Z 18007KT 21/16 A3016 RMK A01 T02080157  RH  073%=      5-min Rain = 0
KEN1 111032Z 19007KT 21/16 A3016 RMK A01 T02070157  RH  073%=      5-min Rain = 0
KEN1 111033Z 19007KT 21/16 A3016 RMK A01 T02060157  RH  073%=      5-min Rain = 0
KEN1 111034Z 19006KT 21/16 A3016 RMK A01 T02050157  RH  074%=      5-min Rain = 0
KEN1 111035Z 18006KT 21/16 A3016 RMK A01 T02050157  RH  074%=      5-min Rain = 0
KEN1 111036Z 19006KT 21/16 A3016 RMK A01 T02050157  RH  074%=      5-min Rain = 0
KEN1 111037Z 19006KT 21/16 A3016 RMK A01 T02050157  RH  074%=      5-min Rain = 0
KEN1 111038Z 19006KT 21/16 A3016 RMK A01 T02050157  RH  074%=      5-min Rain = 0
KEN1 111039Z 20006KT 20/16 A3016 RMK A01 T02040157  RH  074%=      5-min Rain = 0
KEN1 111040Z 20007KT 20/16 A3016 RMK A01 T02040157  RH  074%=      5-min Rain = 0
KEN1 111041Z 19006KT 20/16 A3016 RMK A01 T02040157  RH  074%=      5-min Rain = 0
KEN1 111042Z 19006KT 20/16 A3016 RMK A01 T02030157  RH  075%=      5-min Rain = 0
KEN1 111043Z 19006KT 20/16 A3016 RMK A01 T02030157  RH  075%=      5-min Rain = 0
KEN1 111044Z 18006KT 20/16 A3016 RMK A01 T02020157  RH  075%=      5-min Rain = 0
KEN1 111045Z 18006KT 20/16 A3016 RMK A01 T02020157  RH  075%=      5-min Rain = 0
KEN1 111046Z 18006KT 20/16 A3016 RMK A01 T02020157  RH  075%=      5-min Rain = 0
KEN1 111047Z 18006KT 20/16 A3016 RMK A01 T02020157  RH  075%=      5-min Rain = 0
KEN1 111048Z 18005KT 20/16 A3016 RMK A01 T02010157  RH  076%=      5-min Rain = 0
KEN1 111049Z 18005KT 20/16 A3016 RMK A01 T02010157  RH  076%=      5-min Rain = 0
KEN1 111050Z 19005KT 20/16 A3016 RMK A01 T02000157  RH  076%=      5-min Rain = 0
KEN1 111051Z 19004KT 20/16 A3016 RMK A01 T02000157  RH  076%=      5-min Rain = 0
KEN1 111052Z 20004KT 20/16 A3016 RMK A01 T01990157  RH  076%=      5-min Rain = 0
KEN1 111053Z 20003KT 20/16 A3016 RMK A01 T01990157  RH  077%=      5-min Rain = 0
KEN1 111054Z 22002KT 20/16 A3016 RMK A01 T01980157  RH  077%=      5-min Rain = 0
KEN1 111055Z 29001KT 20/16 A3016 RMK A01 T01970156  RH  077%=      5-min Rain = 0
KEN1 111056Z 33002KT 20/16 A3016 RMK A01 T01970156  RH  077%=      5-min Rain = 0
KEN1 111057Z 33003KT 20/16 A3016 RMK A01 T01960156  RH  078%=      5-min Rain = 0
KEN1 111058Z 32004KT 20/16 A3016 RMK A01 T01960156  RH  078%=      5-min Rain = 0
KEN1 111059Z 29003KT 20/16 A3016 RMK A01 T01960157  RH  078%=      5-min Rain = 0
KEN1 111100Z 27001KT 20/16 A3016 RMK A01 T01980158  RH  078%=      5-min Rain = 0
KEN1 111101Z 25003KT 20/16 A3016 RMK A01 T01990158  RH  077%=      5-min Rain = 0
KEN1 111102Z 22003KT 20/16 A3016 RMK A01 T02000158  RH  077%=      5-min Rain = 0
KEN1 111103Z 24002KT 20/16 A3016 RMK A01 T02010158  RH  076%=      5-min Rain = 0
KEN1 111104Z 23002KT 20/16 A3016 RMK A01 T02020158  RH  076%=      5-min Rain = 0
KEN1 111105Z 28003KT 20/16 A3016 RMK A01 T02020158  RH  076%=      5-min Rain = 0
KEN1 111106Z 27003KT 20/16 A3016 RMK A01 T02020157  RH  076%=      5-min Rain = 0
KEN1 111107Z 25003KT 20/16 A3016 RMK A01 T02020157  RH  075%=      5-min Rain = 0
KEN1 111108Z 24004KT 20/16 A3016 RMK A01 T02010158  RH  076%=      5-min Rain = 0
KEN1 111109Z 23003KT 20/16 A3016 RMK A01 T02020158  RH  076%=      5-min Rain = 0
KEN1 111110Z 24002KT 20/16 A3016 RMK A01 T02020157  RH  076%=      5-min Rain = 0
KEN1 111111Z 21002KT 20/16 A3016 RMK A01 T02020157  RH  076%=      5-min Rain = 0
KEN1 111112Z 21002KT 20/16 A3016 RMK A01 T02010157  RH  076%=      5-min Rain = 0
KEN1 111113Z 21002KT 20/16 A3016 RMK A01 T02010157  RH  076%=      5-min Rain = 0
KEN1 111114Z 22002KT 20/16 A3016 RMK A01 T02000157  RH  076%=      5-min Rain = 0
KEN1 111115Z 20002KT 20/16 A3016 RMK A01 T01990156  RH  076%=      5-min Rain = 0
KEN1 111116Z 20002KT 20/16 A3016 RMK A01 T01980157  RH  077%=      5-min Rain = 0
KEN1 111117Z 20002KT 20/16 A3016 RMK A01 T01980156  RH  077%=      5-min Rain = 0
KEN1 111118Z 18001KT 20/16 A3016 RMK A01 T01970156  RH  077%=      5-min Rain = 0
KEN1 111119Z 19002KT 20/16 A3016 RMK A01 T01970157  RH  077%=      5-min Rain = 0
KEN1 111120Z 20003KT 20/16 A3016 RMK A01 T01970156  RH  077%=      5-min Rain = 0
KEN1 111121Z 18003KT 20/16 A3016 RMK A01 T01970156  RH  077%=      5-min Rain = 0
KEN1 111122Z 17003KT 20/16 A3016 RMK A01 T01970156  RH  077%=      5-min Rain = 0
KEN1 111123Z 17002KT 20/16 A3016 RMK A01 T01970156  RH  077%=      5-min Rain = 0
KEN1 111124Z 17002KT 20/16 A3016 RMK A01 T01970156  RH  077%=      5-min Rain = 0
KEN1 111125Z 17002KT 20/16 A3016 RMK A01 T01970156  RH  077%=      5-min Rain = 0
KEN1 111126Z 17003KT 20/16 A3016 RMK A01 T01970156  RH  077%=      5-min Rain = 0
KEN1 111127Z 16003KT 20/16 A3016 RMK A01 T01970156  RH  077%=      5-min Rain = 0
KEN1 111128Z 15003KT 20/16 A3016 RMK A01 T01970156  RH  077%=      5-min Rain = 0
KEN1 111129Z 15004KT 20/16 A3016 RMK A01 T01950155  RH  078%=      5-min Rain = 0
KEN1 111130Z 15004KT 19/16 A3016 RMK A01 T01940156  RH  078%=      5-min Rain = 0
KEN1 111131Z 16004KT 19/16 A3016 RMK A01 T01940156  RH  078%=      5-min Rain = 0
KEN1 111132Z 16004KT 19/16 A3016 RMK A01 T01930156  RH  079%=      5-min Rain = 0
KEN1 111133Z 17004KT 19/16 A3016 RMK A01 T01930155  RH  079%=      5-min Rain = 0
KEN1 111134Z 18004KT 19/16 A3016 RMK A01 T01930156  RH  079%=      5-min Rain = 0
KEN1 111135Z 17004KT 19/16 A3016 RMK A01 T01930156  RH  079%=      5-min Rain = 0
KEN1 111136Z 18004KT 19/16 A3016 RMK A01 T01930155  RH  079%=      5-min Rain = 0
KEN1 111137Z 18003KT 19/16 A3016 RMK A01 T01930156  RH  079%=      5-min Rain = 0
KEN1 111138Z 18003KT 19/16 A3016 RMK A01 T01930156  RH  079%=      5-min Rain = 0
KEN1 111139Z 19004KT 19/16 A3016 RMK A01 T01930156  RH  079%=      5-min Rain = 0
KEN1 111140Z 20004KT 19/16 A3016 RMK A01 T01930156  RH  079%=      5-min Rain = 0
KEN1 111141Z 20004KT 19/16 A3016 RMK A01 T01930156  RH  079%=      5-min Rain = 0
KEN1 111142Z 20005KT 19/16 A3016 RMK A01 T01940156  RH  079%=      5-min Rain = 0
KEN1 111143Z 20005KT 19/16 A3016 RMK A01 T01940156  RH  078%=      5-min Rain = 0
KEN1 111144Z 20005KT 19/16 A3016 RMK A01 T01940156  RH  079%=      5-min Rain = 0
KEN1 111145Z 20006KT 19/16 A3016 RMK A01 T01940156  RH  078%=      5-min Rain = 0
KEN1 111146Z 19006KT 19/16 A3016 RMK A01 T01940156  RH  078%=      5-min Rain = 0
KEN1 111147Z 20006KT 19/16 A3016 RMK A01 T01940156  RH  079%=      5-min Rain = 0
KEN1 111148Z 20006KT 19/16 A3016 RMK A01 T01940156  RH  079%=      5-min Rain = 0
KEN1 111149Z 20007KT 20/16 A3016 RMK A01 T01950156  RH  078%=      5-min Rain = 0
KEN1 111150Z 20007KT 20/16 A3016 RMK A01 T01950156  RH  078%=      5-min Rain = 0
KEN1 111151Z 20007KT 20/16 A3016 RMK A01 T01960156  RH  078%=      5-min Rain = 0
KEN1 111152Z 20006KT 20/16 A3017 RMK A01 T01960156  RH  078%=      5-min Rain = 0
KEN1 111153Z 20006KT 20/16 A3017 RMK A01 T01960156  RH  078%=      5-min Rain = 0
KEN1 111154Z 19006KT 20/16 A3017 RMK A01 T01950157  RH  078%=      5-min Rain = 0
KEN1 111155Z 18006KT 20/16 A3017 RMK A01 T01950157  RH  079%=      5-min Rain = 0
KEN1 111156Z 18005KT 19/16 A3017 RMK A01 T01940156  RH  079%=      5-min Rain = 0
KEN1 111157Z 15005KT 19/16 A3017 RMK A01 T01930156  RH  079%=      5-min Rain = 0
KEN1 111158Z 13006KT 19/16 A3017 RMK A01 T01920155  RH  079%=      5-min Rain = 0
KEN1 111159Z 13007KT 19/15 A3017 RMK A01 T01890154  RH  080%=      5-min Rain = 0
KEN1 111200Z 13007KT 19/15 A3017 RMK A01 T01870154  RH  081%=      5-min Rain = 0
KEN1 111201Z 13007KT 19/15 A3017 RMK A01 T01850154  RH  082%=      5-min Rain = 0
KEN1 111202Z 13007KT 18/15 A3017 RMK A01 T01840154  RH  083%=      5-min Rain = 0
KEN1 111203Z 14006KT 18/15 A3017 RMK A01 T01820154  RH  083%=      5-min Rain = 0
KEN1 111204Z 14006KT 18/15 A3017 RMK A01 T01820154  RH  084%=      5-min Rain = 0
KEN1 111205Z 14006KT 18/15 A3017 RMK A01 T01810154  RH  084%=      5-min Rain = 0
KEN1 111206Z 14006KT 18/15 A3017 RMK A01 T01810154  RH  085%=      5-min Rain = 0
KEN1 111207Z 14007KT 18/15 A3017 RMK A01 T01800154  RH  085%=      5-min Rain = 0
KEN1 111208Z 14006KT 18/16 A3017 RMK A01 T01800155  RH  085%=      5-min Rain = 0
KEN1 111209Z 14006KT 18/16 A3017 RMK A01 T01800155  RH  085%=      5-min Rain = 0
KEN1 111210Z 15006KT 18/16 A3017 RMK A01 T01800155  RH  085%=      5-min Rain = 0
KEN1 111211Z 15005KT 18/16 A3017 RMK A01 T01800155  RH  085%=      5-min Rain = 0
KEN1 111212Z 15005KT 18/16 A3017 RMK A01 T01810155  RH  085%=      5-min Rain = 0
KEN1 111213Z 15005KT 18/16 A3017 RMK A01 T01810155  RH  085%=      5-min Rain = 0
KEN1 111214Z 15005KT 18/16 A3017 RMK A01 T01820156  RH  084%=      5-min Rain = 0
KEN1 111215Z 16005KT 18/16 A3017 RMK A01 T01830155  RH  084%=      5-min Rain = 0
KEN1 111216Z 16005KT 18/16 A3017 RMK A01 T01840156  RH  084%=      5-min Rain = 0
KEN1 111217Z 16005KT 18/16 A3017 RMK A01 T01840156  RH  083%=      5-min Rain = 0
KEN1 111218Z 17005KT 19/16 A3017 RMK A01 T01850156  RH  083%=      5-min Rain = 0
KEN1 111219Z 18005KT 19/16 A3017 RMK A01 T01850156  RH  083%=      5-min Rain = 0
KEN1 111220Z 18005KT 19/16 A3017 RMK A01 T01860156  RH  083%=      5-min Rain = 0
KEN1 111221Z 17005KT 19/16 A3017 RMK A01 T01860156  RH  083%=      5-min Rain = 0
KEN1 111222Z 18005KT 19/16 A3017 RMK A01 T01870156  RH  082%=      5-min Rain = 0
KEN1 111223Z 17005KT 19/16 A3017 RMK A01 T01880157  RH  082%=      5-min Rain = 0
KEN1 111224Z 17005KT 19/16 A3017 RMK A01 T01880157  RH  082%=      5-min Rain = 0
KEN1 111225Z 17005KT 19/16 A3017 RMK A01 T01880157  RH  082%=      5-min Rain = 0
KEN1 111226Z 17006KT 19/16 A3017 RMK A01 T01890157  RH  082%=      5-min Rain = 0
KEN1 111227Z 17006KT 19/16 A3017 RMK A01 T01900157  RH  081%=      5-min Rain = 0
KEN1 111228Z 17006KT 19/16 A3017 RMK A01 T01900157  RH  081%=      5-min Rain = 0
KEN1 111229Z 17006KT 19/16 A3017 RMK A01 T01910157  RH  081%=      5-min Rain = 0
KEN1 111230Z 17006KT 19/16 A3017 RMK A01 T01920158  RH  080%=      5-min Rain = 0
KEN1 111231Z 16005KT 19/16 A3017 RMK A01 T01930158  RH  080%=      5-min Rain = 0
KEN1 111232Z 16005KT 19/16 A3017 RMK A01 T01930158  RH  080%=      5-min Rain = 0
KEN1 111233Z 16005KT 19/16 A3017 RMK A01 T01940159  RH  080%=      5-min Rain = 0
KEN1 111234Z 16005KT 19/16 A3017 RMK A01 T01940158  RH  080%=      5-min Rain = 0
KEN1 111235Z 16005KT 20/16 A3017 RMK A01 T01950158  RH  079%=      5-min Rain = 0
KEN1 111236Z 16004KT 20/16 A3017 RMK A01 T01950158  RH  079%=      5-min Rain = 0
KEN1 111237Z 15004KT 20/16 A3017 RMK A01 T01960159  RH  079%=      5-min Rain = 0
KEN1 111238Z 15003KT 20/16 A3017 RMK A01 T01960159  RH  079%=      5-min Rain = 0
KEN1 111239Z 15003KT 20/16 A3017 RMK A01 T01970159  RH  079%=      5-min Rain = 0
KEN1 111240Z 15002KT 20/16 A3017 RMK A01 T01970159  RH  079%=      5-min Rain = 0
KEN1 111241Z 15002KT 20/16 A3017 RMK A01 T01980160  RH  078%=      5-min Rain = 0
KEN1 111242Z 13002KT 20/16 A3017 RMK A01 T01990160  RH  078%=      5-min Rain = 0
KEN1 111243Z 13001KT 20/16 A3017 RMK A01 T02000160  RH  078%=      5-min Rain = 0
KEN1 111244Z 15000KT 20/16 A3017 RMK A01 T02010160  RH  078%=      5-min Rain = 0
KEN1 111245Z 00000KT 20/16 A3017 RMK A01 T02020161  RH  077%=      5-min Rain = 0
KEN1 111246Z 00000KT 20/16 A3017 RMK A01 T02030160  RH  076%=      5-min Rain = 0
KEN1 111247Z 00000KT 21/16 A3017 RMK A01 T02050160  RH  076%=      5-min Rain = 0
KEN1 111248Z 00000KT 21/16 A3017 RMK A01 T02060160  RH  075%=      5-min Rain = 0
KEN1 111249Z 00000KT 21/16 A3017 RMK A01 T02060159  RH  075%=      5-min Rain = 0
KEN1 111250Z 04001KT 21/16 A3017 RMK A01 T02060160  RH  075%=      5-min Rain = 0
KEN1 111251Z 08000KT 21/16 A3017 RMK A01 T02070161  RH  075%=      5-min Rain = 0
KEN1 111252Z 08001KT 21/16 A3017 RMK A01 T02070161  RH  075%=      5-min Rain = 0
KEN1 111253Z 09001KT 21/16 A3017 RMK A01 T02070162  RH  075%=      5-min Rain = 0
KEN1 111254Z 07001KT 21/16 A3017 RMK A01 T02080163  RH  075%=      5-min Rain = 0
KEN1 111255Z 07002KT 21/16 A3017 RMK A01 T02080164  RH  076%=      5-min Rain = 0
KEN1 111256Z 07002KT 21/16 A3017 RMK A01 T02080163  RH  076%=      5-min Rain = 0
KEN1 111257Z 07002KT 21/16 A3017 RMK A01 T02070163  RH  076%=      5-min Rain = 0
KEN1 111258Z 06001KT 21/16 A3017 RMK A01 T02070162  RH  076%=      5-min Rain = 0
KEN1 111259Z 06001KT 21/16 A3017 RMK A01 T02070162  RH  076%=      5-min Rain = 0
KEN1 111300Z 05000KT 21/16 A3017 RMK A01 T02070162  RH  075%=      5-min Rain = 0
KEN1 111301Z 28000KT 21/16 A3017 RMK A01 T02080161  RH  074%=      5-min Rain = 0
KEN1 111302Z 12000KT 21/16 A3017 RMK A01 T02090161  RH  074%=      5-min Rain = 0
KEN1 111303Z 15001KT 21/16 A3017 RMK A01 T02110161  RH  073%=      5-min Rain = 0
KEN1 111304Z 19001KT 21/16 A3017 RMK A01 T02120160  RH  072%=      5-min Rain = 0
KEN1 111305Z 14000KT 21/16 A3017 RMK A01 T02130160  RH  072%=      5-min Rain = 0
KEN1 111306Z 16001KT 21/16 A3017 RMK A01 T02130160  RH  071%=      5-min Rain = 0
KEN1 111307Z 17001KT 22/16 A3017 RMK A01 T02150161  RH  071%=      5-min Rain = 0
KEN1 111308Z 15001KT 22/16 A3017 RMK A01 T02160161  RH  071%=      5-min Rain = 0
KEN1 111309Z 14001KT 22/16 A3017 RMK A01 T02170161  RH  070%=      5-min Rain = 0
KEN1 111310Z 19002KT 22/16 A3017 RMK A01 T02180161  RH  070%=      5-min Rain = 0
KEN1 111311Z 19001KT 22/16 A3017 RMK A01 T02180161  RH  070%=      5-min Rain = 0
KEN1 111312Z 18002KT 22/16 A3017 RMK A01 T02180161  RH  070%=      5-min Rain = 0
KEN1 111313Z 19002KT 22/16 A3017 RMK A01 T02180161  RH  070%=      5-min Rain = 0
KEN1 111314Z 20003KT 22/16 A3017 RMK A01 T02190161  RH  070%=      5-min Rain = 0
KEN1 111315Z 20004KT 22/16 A3017 RMK A01 T02200162  RH  069%=      5-min Rain = 0
KEN1 111316Z 18003KT 22/16 A3017 RMK A01 T02210161  RH  069%=      5-min Rain = 0
KEN1 111317Z 16004KT 22/16 A3017 RMK A01 T02220162  RH  069%=      5-min Rain = 0
KEN1 111318Z 17004KT 22/16 A3017 RMK A01 T02230162  RH  068%=      5-min Rain = 0
KEN1 111319Z 18005KT 23/16 A3017 RMK A01 T02250163  RH  068%=      5-min Rain = 0
KEN1 111320Z 19005KT 23/16 A3017 RMK A01 T02250162  RH  067%=      5-min Rain = 0
KEN1 111321Z 17005KT 23/16 A3017 RMK A01 T02260162  RH  067%=      5-min Rain = 0
KEN1 111322Z 17005KT 23/16 A3017 RMK A01 T02260162  RH  067%=      5-min Rain = 0
KEN1 111323Z 17006KT 23/16 A3016 RMK A01 T02270163  RH  067%=      5-min Rain = 0
KEN1 111324Z 18007KT 23/16 A3016 RMK A01 T02280163  RH  067%=      5-min Rain = 0
KEN1 111325Z 19007KT 23/16 A3016 RMK A01 T02290163  RH  066%=      5-min Rain = 0
KEN1 111326Z 19008KT 23/16 A3016 RMK A01 T02310163  RH  066%=      5-min Rain = 0
KEN1 111327Z 18008KT 23/16 A3016 RMK A01 T02320163  RH  065%=      5-min Rain = 0
KEN1 111328Z 18006KT 23/16 A3016 RMK A01 T02330163  RH  065%=      5-min Rain = 0
KEN1 111329Z 19009KT 23/16 A3016 RMK A01 T02340164  RH  065%=      5-min Rain = 0
KEN1 111330Z 19011KT 24/16 A3016 RMK A01 T02360163  RH  064%=      5-min Rain = 0
KEN1 111331Z 19011KT 24/16 A3016 RMK A01 T02400164  RH  062%=      5-min Rain = 0
KEN1 111332Z 20011KT 24/16 A3016 RMK A01 T02420163  RH  061%=      5-min Rain = 0
KEN1 111333Z 21012KT 24/16 A3016 RMK A01 T02430164  RH  061%=      5-min Rain = 0
KEN1 111334Z 19012KT 24/16 A3016 RMK A01 T02430162  RH  061%=      5-min Rain = 0
KEN1 111335Z 20013KT 24/16 A3016 RMK A01 T02440162  RH  060%=      5-min Rain = 0
KEN1 111336Z 20014KT 24/16 A3016 RMK A01 T02440161  RH  060%=      5-min Rain = 0
KEN1 111337Z 20013KT 24/16 A3016 RMK A01 T02440161  RH  060%=      5-min Rain = 0
KEN1 111338Z 20013KT 24/16 A3016 RMK A01 T02440161  RH  060%=      5-min Rain = 0
KEN1 111339Z 20013KT 24/16 A3016 RMK A01 T02440160  RH  060%=      5-min Rain = 0
KEN1 111340Z 20010KT 24/16 A3016 RMK A01 T02440162  RH  060%=      5-min Rain = 0
KEN1 111341Z 21011KT 25/16 A3016 RMK A01 T02450162  RH  060%=      5-min Rain = 0
KEN1 111342Z 21011KT 25/16 A3016 RMK A01 T02470161  RH  059%=      5-min Rain = 0
KEN1 111343Z 20010KT 25/16 A3016 RMK A01 T02480162  RH  059%=      5-min Rain = 0
KEN1 111344Z 19011KT 25/16 A3016 RMK A01 T02480161  RH  058%=      5-min Rain = 0
KEN1 111345Z 20010KT 25/16 A3016 RMK A01 T02480161  RH  058%=      5-min Rain = 0
KEN1 111346Z 21010KT 25/16 A3016 RMK A01 T02480161  RH  058%=      5-min Rain = 0
KEN1 111347Z 20009KT 25/16 A3016 RMK A01 T02480161  RH  058%=      5-min Rain = 0
KEN1 111348Z 19012KT 25/16 A3016 RMK A01 T02490161  RH  058%=      5-min Rain = 0
KEN1 111349Z 20014KT 25/16 A3016 RMK A01 T02490160  RH  058%=      5-min Rain = 0
KEN1 111350Z 19012KT 25/16 A3016 RMK A01 T02490160  RH  058%=      5-min Rain = 0
KEN1 111351Z 20010KT 25/16 A3016 RMK A01 T02490161  RH  058%=      5-min Rain = 0
KEN1 111352Z 19014KT 25/16 A3016 RMK A01 T02500160  RH  057%=      5-min Rain = 0
KEN1 111353Z 19013KT 25/16 A3016 RMK A01 T02500160  RH  057%=      5-min Rain = 0
KEN1 111354Z 19013KT 25/16 A3016 RMK A01 T02500161  RH  058%=      5-min Rain = 0
KEN1 111355Z 19012KT 25/16 A3016 RMK A01 T02500161  RH  058%=      5-min Rain = 0
KEN1 111356Z 20012KT 25/16 A3016 RMK A01 T02500160  RH  058%=      5-min Rain = 0
KEN1 111357Z 20014KT 25/16 A3016 RMK A01 T02500161  RH  058%=      5-min Rain = 0
KEN1 111358Z 20014KT 25/16 A3016 RMK A01 T02500160  RH  057%=      5-min Rain = 0
KEN1 111359Z 20011KT 25/16 A3016 RMK A01 T02500161  RH  058%=      5-min Rain = 0
KEN1 111400Z 20013KT 25/16 A3016 RMK A01 T02510161  RH  057%=      5-min Rain = 0
KEN1 111401Z 20014KT 25/16 A3016 RMK A01 T02520161  RH  057%=      5-min Rain = 0
KEN1 111402Z 21016KT 25/16 A3016 RMK A01 T02520161  RH  057%=      5-min Rain = 0
KEN1 111403Z 21014KT 25/16 A3016 RMK A01 T02510161  RH  057%=      5-min Rain = 0
KEN1 111404Z 21013KT 25/16 A3016 RMK A01 T02510161  RH  058%=      5-min Rain = 0
KEN1 111405Z 20013KT 25/16 A3016 RMK A01 T02510161  RH  057%=      5-min Rain = 0
KEN1 111406Z 20013KT 25/16 A3016 RMK A01 T02520162  RH  057%=      5-min Rain = 0
KEN1 111407Z 20012KT 25/16 A3016 RMK A01 T02520162  RH  057%=      5-min Rain = 0
KEN1 111408Z 19013KT 25/16 A3016 RMK A01 T02540162  RH  057%=      5-min Rain = 0
KEN1 111409Z 20014KT 25/16 A3016 RMK A01 T02530162  RH  057%=      5-min Rain = 0
KEN1 111410Z 21014KT 25/16 A3016 RMK A01 T02540163  RH  057%=      5-min Rain = 0
KEN1 111411Z 20014KT 25/16 A3016 RMK A01 T02530163  RH  057%=      5-min Rain = 0
KEN1 111412Z 19015KT 25/16 A3016 RMK A01 T02540163  RH  057%=      5-min Rain = 0
KEN1 111413Z 20017KT 26/16 A3016 RMK A01 T02550162  RH  056%=      5-min Rain = 0
KEN1 111414Z 20015KT 26/16 A3016 RMK A01 T02550162  RH  056%=      5-min Rain = 0
KEN1 111415Z 20015KT 26/16 A3016 RMK A01 T02550163  RH  057%=      5-min Rain = 0
KEN1 111416Z 20014KT 26/16 A3016 RMK A01 T02550163  RH  056%=      5-min Rain = 0
KEN1 111417Z 20013KT 26/16 A3016 RMK A01 T02560163  RH  056%=      5-min Rain = 0
KEN1 111418Z 19014KT 26/16 A3016 RMK A01 T02580163  RH  056%=      5-min Rain = 0
KEN1 111419Z 19015KT 26/16 A3016 RMK A01 T02580163  RH  056%=      5-min Rain = 0
KEN1 111420Z 19014KT 26/16 A3016 RMK A01 T02580163  RH  056%=      5-min Rain = 0
KEN1 111421Z 20015KT 26/16 A3016 RMK A01 T02580162  RH  056%=      5-min Rain = 0
KEN1 111422Z 19017KT 26/16 A3016 RMK A01 T02580163  RH  056%=      5-min Rain = 0
KEN1 111423Z 19015KT 26/16 A3016 RMK A01 T02580162  RH  055%=      5-min Rain = 0
KEN1 111424Z 20014KT 26/16 A3016 RMK A01 T02580163  RH  056%=      5-min Rain = 0
KEN1 111425Z 20015KT 26/16 A3016 RMK A01 T02580163  RH  056%=      5-min Rain = 0
KEN1 111426Z 20017KT 26/16 A3016 RMK A01 T02600162  RH  055%=      5-min Rain = 0
KEN1 111427Z 21015KT 26/16 A3016 RMK A01 T02600163  RH  055%=      5-min Rain = 0
KEN1 111428Z 20016KT 26/16 A3016 RMK A01 T02600162  RH  055%=      5-min Rain = 0
KEN1 111429Z 20014KT 26/16 A3016 RMK A01 T02600162  RH  055%=      5-min Rain = 0
KEN1 111430Z 20014KT 26/16 A3016 RMK A01 T02600162  RH  055%=      5-min Rain = 0
KEN1 111431Z 20016KT 26/16 A3016 RMK A01 T02610163  RH  055%=      5-min Rain = 0
KEN1 111432Z 20015KT 26/16 A3016 RMK A01 T02620162  RH  054%=      5-min Rain = 0
KEN1 111433Z 20017KT 26/16 A3016 RMK A01 T02620163  RH  054%=      5-min Rain = 0
KEN1 111434Z 20015KT 26/16 A3016 RMK A01 T02620163  RH  054%=      5-min Rain = 0
KEN1 111435Z 20015KT 26/16 A3016 RMK A01 T02620163  RH  054%=      5-min Rain = 0
KEN1 111436Z 20016KT 26/16 A3016 RMK A01 T02620162  RH  054%=      5-min Rain = 0
KEN1 111437Z 20014KT 26/16 A3016 RMK A01 T02620162  RH  054%=      5-min Rain = 0
KEN1 111438Z 20015KT 26/16 A3016 RMK A01 T02620163  RH  054%=      5-min Rain = 0
KEN1 111439Z 20015KT 26/16 A3016 RMK A01 T02640162  RH  054%=      5-min Rain = 0
KEN1 111440Z 20015KT 26/16 A3016 RMK A01 T02640162  RH  053%=      5-min Rain = 0
KEN1 111441Z 20015KT 26/16 A3016 RMK A01 T02640162  RH  053%=      5-min Rain = 0
KEN1 111442Z 21013KT 26/16 A3016 RMK A01 T02640163  RH  054%=      5-min Rain = 0
KEN1 111443Z 20014KT 26/16 A3016 RMK A01 T02640162  RH  053%=      5-min Rain = 0
KEN1 111444Z 19014KT 26/16 A3016 RMK A01 T02640163  RH  054%=      5-min Rain = 0
KEN1 111445Z 20014KT 26/16 A3016 RMK A01 T02630163  RH  054%=      5-min Rain = 0
KEN1 111446Z 19013KT 26/16 A3016 RMK A01 T02640163  RH  054%=      5-min Rain = 0
KEN1 111447Z 20012KT 27/16 A3016 RMK A01 T02670164  RH  053%=      5-min Rain = 0
KEN1 111448Z 20012KT 27/16 A3016 RMK A01 T02690164  RH  052%=      5-min Rain = 0
KEN1 111449Z 21015KT 27/16 A3016 RMK A01 T02710163  RH  052%=      5-min Rain = 0
KEN1 111450Z 21013KT 27/16 A3016 RMK A01 T02700163  RH  052%=      5-min Rain = 0
KEN1 111451Z 20014KT 27/16 A3016 RMK A01 T02690163  RH  052%=      5-min Rain = 0
KEN1 111452Z 20014KT 27/16 A3016 RMK A01 T02690163  RH  052%=      5-min Rain = 0
KEN1 111453Z 20015KT 27/16 A3016 RMK A01 T02690162  RH  052%=      5-min Rain = 0
KEN1 111454Z 21015KT 27/16 A3016 RMK A01 T02680161  RH  052%=      5-min Rain = 0
KEN1 111455Z 21014KT 27/16 A3016 RMK A01 T02670160  RH  052%=      5-min Rain = 0
KEN1 111456Z 21012KT 27/16 A3016 RMK A01 T02690160  RH  052%=      5-min Rain = 0
KEN1 111457Z 21014KT 27/16 A3016 RMK A01 T02700162  RH  052%=      5-min Rain = 0
KEN1 111458Z 21013KT 27/16 A3016 RMK A01 T02710163  RH  052%=      5-min Rain = 0
KEN1 111459Z 21014KT 27/16 A3016 RMK A01 T02700163  RH  052%=      5-min Rain = 0
KEN1 111500Z 21014KT 27/16 A3016 RMK A01 T02690162  RH  052%=      5-min Rain = 0
KEN1 111501Z 21010KT 27/16 A3016 RMK A01 T02700162  RH  052%=      5-min Rain = 0
KEN1 111502Z 20012G17KT 27/16 A3016 RMK A01 T02710163  RH  051%=      5-min Rain = 0
KEN1 111503Z 21012KT 27/16 A3016 RMK A01 T02730162  RH  051%=      5-min Rain = 0
KEN1 111504Z 22014KT 27/16 A3016 RMK A01 T02740161  RH  050%=      5-min Rain = 0
KEN1 111505Z 21014KT 27/16 A3016 RMK A01 T02730160  RH  050%=      5-min Rain = 0
KEN1 111506Z 20013KT 27/16 A3016 RMK A01 T02720161  RH  051%=      5-min Rain = 0
KEN1 111507Z 21013KT 27/16 A3016 RMK A01 T02730161  RH  050%=      5-min Rain = 0
KEN1 111508Z 22012KT 27/16 A3016 RMK A01 T02730160  RH  050%=      5-min Rain = 0
KEN1 111509Z 21013KT 27/16 A3016 RMK A01 T02730162  RH  051%=      5-min Rain = 0
KEN1 111510Z 21012KT 27/16 A3016 RMK A01 T02730161  RH  050%=      5-min Rain = 0
KEN1 111511Z 20012KT 28/16 A3016 RMK A01 T02750161  RH  050%=      5-min Rain = 0
KEN1 111512Z 21013KT 28/16 A3016 RMK A01 T02750162  RH  050%=      5-min Rain = 0
KEN1 111513Z 21013KT 28/16 A3016 RMK A01 T02760162  RH  050%=      5-min Rain = 0
KEN1 111514Z 20010KT 28/16 A3016 RMK A01 T02750162  RH  050%=      5-min Rain = 0
KEN1 111515Z 21012KT 27/16 A3016 RMK A01 T02740163  RH  050%=      5-min Rain = 0
KEN1 111516Z 21013KT 28/16 A3016 RMK A01 T02750162  RH  050%=      5-min Rain = 0
KEN1 111517Z 20012KT 28/16 A3016 RMK A01 T02760159  RH  049%=      5-min Rain = 0
KEN1 111518Z 20011KT 28/16 A3016 RMK A01 T02760160  RH  049%=      5-min Rain = 0
KEN1 111519Z 21011KT 28/16 A3016 RMK A01 T02770160  RH  049%=      5-min Rain = 0
KEN1 111520Z 22014KT 28/16 A3016 RMK A01 T02770159  RH  049%=      5-min Rain = 0
KEN1 111521Z 20012KT 28/16 A3016 RMK A01 T02760159  RH  049%=      5-min Rain = 0
KEN1 111522Z 22012KT 28/16 A3016 RMK A01 T02770158  RH  048%=      5-min Rain = 0
KEN1 111523Z 22011KT 28/16 A3016 RMK A01 T02770161  RH  049%=      5-min Rain = 0
KEN1 111524Z 22011KT 28/16 A3016 RMK A01 T02770159  RH  048%=      5-min Rain = 0
KEN1 111525Z 20009KT 28/16 A3016 RMK A01 T02750161  RH  050%=      5-min Rain = 0
KEN1 111526Z 19010KT 28/16 A3016 RMK A01 T02760162  RH  050%=      5-min Rain = 0
KEN1 111527Z 21009KT 28/16 A3016 RMK A01 T02770162  RH  049%=      5-min Rain = 0
KEN1 111528Z 21011KT 28/16 A3016 RMK A01 T02790161  RH  049%=      5-min Rain = 0
KEN1 111529Z 19011KT 28/16 A3016 RMK A01 T02800160  RH  048%=      5-min Rain = 0
KEN1 111530Z 20011KT 28/16 A3016 RMK A01 T02810159  RH  047%=      5-min Rain = 0
KEN1 111531Z 18012KT 28/16 A3016 RMK A01 T02810159  RH  048%=      5-min Rain = 0
KEN1 111532Z 20012KT 28/16 A3016 RMK A01 T02790158  RH  048%=      5-min Rain = 0
KEN1 111533Z 20011KT 28/16 A3016 RMK A01 T02790156  RH  047%=      5-min Rain = 0
KEN1 111534Z 21012KT 28/16 A3016 RMK A01 T02800158  RH  048%=      5-min Rain = 0
KEN1 111535Z 22012KT 28/16 A3016 RMK A01 T02800159  RH  048%=      5-min Rain = 0
KEN1 111536Z 22013KT 28/16 A3016 RMK A01 T02800157  RH  047%=      5-min Rain = 0
KEN1 111537Z 22012KT 28/16 A3016 RMK A01 T02790157  RH  047%=      5-min Rain = 0
KEN1 111538Z 21012KT 28/16 A3016 RMK A01 T02790158  RH  048%=      5-min Rain = 0
KEN1 111539Z 20011KT 28/16 A3016 RMK A01 T02800158  RH  048%=      5-min Rain = 0
KEN1 111540Z 21012KT 28/16 A3016 RMK A01 T02830159  RH  047%=      5-min Rain = 0
KEN1 111541Z 20011KT 28/16 A3016 RMK A01 T02840158  RH  046%=      5-min Rain = 0
KEN1 111542Z 20011KT 28/16 A3016 RMK A01 T02820157  RH  047%=      5-min Rain = 0
KEN1 111543Z 20011KT 28/16 A3016 RMK A01 T02810158  RH  047%=      5-min Rain = 0
KEN1 111544Z 20010KT 28/16 A3015 RMK A01 T02820158  RH  047%=      5-min Rain = 0
KEN1 111545Z 20012KT 28/16 A3015 RMK A01 T02830160  RH  047%=      5-min Rain = 0
KEN1 111546Z 20011KT 29/16 A3015 RMK A01 T02850157  RH  046%=      5-min Rain = 0
KEN1 111547Z 20008KT 28/16 A3015 RMK A01 T02830157  RH  046%=      5-min Rain = 0
KEN1 111548Z 20009KT 28/16 A3015 RMK A01 T02820160  RH  047%=      5-min Rain = 0
KEN1 111549Z 22009KT 29/16 A3015 RMK A01 T02850161  RH  047%=      5-min Rain = 0
KEN1 111550Z 21011KT 29/16 A3015 RMK A01 T02870159  RH  046%=      5-min Rain = 0
KEN1 111551Z 19011KT 29/16 A3015 RMK A01 T02860159  RH  046%=      5-min Rain = 0
KEN1 111552Z 18010KT 29/16 A3015 RMK A01 T02860157  RH  046%=      5-min Rain = 0
KEN1 111553Z 21010KT 29/16 A3015 RMK A01 T02870157  RH  045%=      5-min Rain = 0
KEN1 111554Z 22011KT 29/16 A3015 RMK A01 T02880157  RH  045%=      5-min Rain = 0
KEN1 111555Z 23011KT 29/16 A3015 RMK A01 T02900157  RH  044%=      5-min Rain = 0
KEN1 111556Z 22012KT 29/16 A3015 RMK A01 T02880156  RH  045%=      5-min Rain = 0
KEN1 111557Z 21010KT 29/16 A3015 RMK A01 T02870157  RH  045%=      5-min Rain = 0
KEN1 111558Z 21008KT 29/16 A3015 RMK A01 T02860158  RH  046%=      5-min Rain = 0
KEN1 111559Z 19009KT 29/16 A3015 RMK A01 T02850157  RH  046%=      5-min Rain = 0
KEN1 111600Z 21011KT 29/16 A3015 RMK A01 T02860159  RH  046%=      5-min Rain = 0
KEN1 111601Z 21009KT 29/16 A3015 RMK A01 T02870158  RH  046%=      5-min Rain = 0
KEN1 111602Z 22011KT 29/16 A3015 RMK A01 T02870157  RH  045%=      5-min Rain = 0
KEN1 111603Z 22012KT 29/16 A3015 RMK A01 T02870155  RH  045%=      5-min Rain = 0
KEN1 111604Z 21012KT 29/16 A3015 RMK A01 T02880156  RH  045%=      5-min Rain = 0
KEN1 111605Z 22010KT 29/16 A3015 RMK A01 T02870157  RH  045%=      5-min Rain = 0
KEN1 111606Z 23010KT 29/16 A3015 RMK A01 T02870157  RH  045%=      5-min Rain = 0
KEN1 111607Z 21008KT 29/16 A3015 RMK A01 T02860157  RH  046%=      5-min Rain = 0
KEN1 111608Z 19012KT 29/16 A3015 RMK A01 T02850158  RH  046%=      5-min Rain = 0
KEN1 111609Z 20013KT 29/16 A3015 RMK A01 T02870155  RH  045%=      5-min Rain = 0
KEN1 111610Z 20011KT 29/15 A3015 RMK A01 T02880153  RH  044%=      5-min Rain = 0
KEN1 111611Z 21013KT 29/16 A3015 RMK A01 T02890155  RH  044%=      5-min Rain = 0
KEN1 111612Z 21013KT 29/16 A3015 RMK A01 T02890155  RH  044%=      5-min Rain = 0
KEN1 111613Z 22009KT 29/16 A3015 RMK A01 T02880155  RH  044%=      5-min Rain = 0
KEN1 111614Z 22007KT 29/16 A3015 RMK A01 T02870156  RH  045%=      5-min Rain = 0
KEN1 111615Z 19011KT 29/16 A3015 RMK A01 T02880157  RH  045%=      5-min Rain = 0
KEN1 111616Z 20014KT 29/15 A3015 RMK A01 T02910153  RH  043%=      5-min Rain = 0
KEN1 111617Z 20010KT 29/15 A3015 RMK A01 T02910152  RH  043%=      5-min Rain = 0
KEN1 111618Z 20009KT 29/15 A3015 RMK A01 T02880150  RH  043%=      5-min Rain = 0
KEN1 111619Z 20009KT 29/15 A3015 RMK A01 T02880150  RH  043%=      5-min Rain = 0
KEN1 111620Z 18009KT 29/15 A3015 RMK A01 T02880150  RH  043%=      5-min Rain = 0
KEN1 111621Z 16008KT 29/15 A3015 RMK A01 T02910150  RH  042%=      5-min Rain = 0
KEN1 111622Z 17011KT 29/15 A3015 RMK A01 T02930152  RH  043%=      5-min Rain = 0
KEN1 111623Z 19010KT 30/15 A3015 RMK A01 T02950153  RH  042%=      5-min Rain = 0
KEN1 111624Z 19012KT 29/15 A3015 RMK A01 T02940153  RH  042%=      5-min Rain = 0
KEN1 111625Z 20012KT 29/15 A3015 RMK A01 T02940154  RH  043%=      5-min Rain = 0
KEN1 111626Z 19012KT 29/15 A3015 RMK A01 T02940152  RH  042%=      5-min Rain = 0
KEN1 111627Z 20011KT 29/15 A3015 RMK A01 T02930149  RH  041%=      5-min Rain = 0
KEN1 111628Z 19009KT 29/15 A3015 RMK A01 T02930153  RH  043%=      5-min Rain = 0
KEN1 111629Z 19009KT 29/15 A3015 RMK A01 T02940154  RH  043%=      5-min Rain = 0
KEN1 111630Z 20007KT 30/15 A3015 RMK A01 T02950151  RH  041%=      5-min Rain = 0
KEN1 111631Z 21008KT 29/15 A3015 RMK A01 T02920151  RH  042%=      5-min Rain = 0
KEN1 111632Z 21010KT 29/15 A3015 RMK A01 T02910149  RH  042%=      5-min Rain = 0
KEN1 111633Z 18010KT 29/15 A3015 RMK A01 T02920152  RH  042%=      5-min Rain = 0
KEN1 111634Z 18009KT 30/15 A3015 RMK A01 T02950151  RH  042%=      5-min Rain = 0
KEN1 111635Z 18008KT 29/15 A3015 RMK A01 T02930151  RH  042%=      5-min Rain = 0
KEN1 111636Z 19010KT 29/15 A3014 RMK A01 T02930150  RH  042%=      5-min Rain = 0
KEN1 111637Z 17011KT 29/15 A3014 RMK A01 T02940146  RH  041%=      5-min Rain = 0
KEN1 111638Z 15011KT 30/15 A3014 RMK A01 T02950147  RH  040%=      5-min Rain = 0
KEN1 111639Z 16010KT 30/15 A3014 RMK A01 T02960148  RH  040%=      5-min Rain = 0
KEN1 111640Z 15008KT 30/15 A3014 RMK A01 T02970150  RH  041%=      5-min Rain = 0
KEN1 111641Z 15010KT 30/15 A3014 RMK A01 T02980153  RH  041%=      5-min Rain = 0
KEN1 111642Z 15012KT 30/15 A3014 RMK A01 T02990153  RH  041%=      5-min Rain = 0
KEN1 111643Z 19013G18KT 30/15 A3014 RMK A01 T03020154  RH  041%=      5-min Rain = 0
KEN1 111644Z 17010KT 31/15 A3015 RMK A01 T03050153  RH  040%=      5-min Rain = 0
KEN1 111645Z 16012KT 30/15 A3014 RMK A01 T03040151  RH  039%=      5-min Rain = 0
KEN1 111646Z 15011KT 30/15 A3014 RMK A01 T03020150  RH  040%=      5-min Rain = 0
KEN1 111647Z 15011KT 30/15 A3014 RMK A01 T03010151  RH  040%=      5-min Rain = 0
KEN1 111648Z 15011KT 30/15 A3014 RMK A01 T03000152  RH  041%=      5-min Rain = 0
KEN1 111649Z 17010KT 30/15 A3014 RMK A01 T03010151  RH  040%=      5-min Rain = 0
KEN1 111650Z 17009KT 30/15 A3014 RMK A01 T02990150  RH  040%=      5-min Rain = 0
KEN1 111651Z 16013KT 30/15 A3014 RMK A01 T02970151  RH  041%=      5-min Rain = 0
KEN1 111652Z 16015KT 30/15 A3014 RMK A01 T03000150  RH  040%=      5-min Rain = 0
KEN1 111653Z 17014KT 30/15 A3015 RMK A01 T03020149  RH  039%=      5-min Rain = 0
KEN1 111654Z 17010KT 30/15 A3015 RMK A01 T03020150  RH  040%=      5-min Rain = 0
KEN1 111655Z 16010KT 30/15 A3014 RMK A01 T03020149  RH  040%=      5-min Rain = 0
KEN1 111656Z 17010KT 30/15 A3014 RMK A01 T03030148  RH  039%=      5-min Rain = 0
KEN1 111657Z 20011KT 30/15 A3014 RMK A01 T03040148  RH  039%=      5-min Rain = 0
KEN1 111658Z 19009KT 30/15 A3015 RMK A01 T03040146  RH  038%=      5-min Rain = 0
KEN1 111659Z 20008KT 30/15 A3014 RMK A01 T03030146  RH  038%=      5-min Rain = 0
KEN1 111700Z 18011G17KT 30/15 A3014 RMK A01 T03010145  RH  039%=      5-min Rain = 0
KEN1 111701Z 17010KT 30/14 A3014 RMK A01 T03000143  RH  038%=      5-min Rain = 0
KEN1 111702Z 16009KT 30/14 A3014 RMK A01 T02990144  RH  039%=      5-min Rain = 0
KEN1 111703Z 17007KT 30/14 A3014 RMK A01 T02990142  RH  038%=      5-min Rain = 0
KEN1 111704Z 16008KT 30/14 A3014 RMK A01 T02990144  RH  039%=      5-min Rain = 0
KEN1 111705Z 16008KT 30/15 A3014 RMK A01 T02990147  RH  040%=      5-min Rain = 0
KEN1 111706Z 15007KT 30/15 A3014 RMK A01 T03010147  RH  039%=      5-min Rain = 0
KEN1 111707Z 18005KT 30/15 A3014 RMK A01 T03000146  RH  039%=      5-min Rain = 0
KEN1 111708Z 20004KT 30/15 A3014 RMK A01 T02980147  RH  040%=      5-min Rain = 0
KEN1 111709Z 20004KT 30/15 A3014 RMK A01 T02980148  RH  040%=      5-min Rain = 0
KEN1 111710Z 17007KT 30/15 A3014 RMK A01 T02990148  RH  040%=      5-min Rain = 0
KEN1 111711Z 14010KT 30/15 A3014 RMK A01 T03020148  RH  039%=      5-min Rain = 0
KEN1 111712Z 15010KT 30/15 A3014 RMK A01 T03040145  RH  038%=      5-min Rain = 0
KEN1 111713Z 15012KT 31/15 A3014 RMK A01 T03050145  RH  038%=      5-min Rain = 0
KEN1 111714Z 14012KT 31/15 A3014 RMK A01 T03070145  RH  037%=      5-min Rain = 0
KEN1 111715Z 16014KT 31/15 A3014 RMK A01 T03100145  RH  037%=      5-min Rain = 0
KEN1 111716Z 17015KT 31/15 A3014 RMK A01 T03120145  RH  036%=      5-min Rain = 0
KEN1 111717Z 18011KT 31/15 A3014 RMK A01 T03100145  RH  037%=      5-min Rain = 0
KEN1 111718Z 15011KT 31/15 A3014 RMK A01 T03090145  RH  037%=      5-min Rain = 0
KEN1 111719Z 16011KT 31/14 A3014 RMK A01 T03090142  RH  036%=      5-min Rain = 0
KEN1 111720Z 15008KT 31/14 A3014 RMK A01 T03090140  RH  036%=      5-min Rain = 0
KEN1 111721Z 14011KT 31/14 A3014 RMK A01 T03080142  RH  036%=      5-min Rain = 0
KEN1 111722Z 14011KT 31/14 A3014 RMK A01 T03090144  RH  037%=      5-min Rain = 0
KEN1 111723Z 14011KT 31/15 A3014 RMK A01 T03080145  RH  037%=      5-min Rain = 0
KEN1 111724Z 15012KT 31/14 A3014 RMK A01 T03090144  RH  037%=      5-min Rain = 0
KEN1 111725Z 15012KT 31/15 A3014 RMK A01 T03140145  RH  036%=      5-min Rain = 0
KEN1 111726Z 18010G15KT 32/14 A3014 RMK A01 T03160144  RH  035%=      5-min Rain = 0
KEN1 111727Z 17010KT 32/14 A3014 RMK A01 T03150144  RH  036%=      5-min Rain = 0
KEN1 111728Z 16010KT 31/14 A3014 RMK A01 T03130143  RH  036%=      5-min Rain = 0
KEN1 111729Z 16009KT 31/14 A3014 RMK A01 T03120139  RH  035%=      5-min Rain = 0
KEN1 111730Z 15013KT 31/14 A3014 RMK A01 T03130143  RH  036%=      5-min Rain = 0
KEN1 111731Z 15014KT 32/14 A3013 RMK A01 T03150143  RH  035%=      5-min Rain = 0
KEN1 111732Z 15013KT 31/14 A3013 RMK A01 T03140142  RH  035%=      5-min Rain = 0
KEN1 111733Z 15014KT 31/14 A3013 RMK A01 T03130143  RH  036%=      5-min Rain = 0
KEN1 111734Z 16009KT 32/14 A3013 RMK A01 T03150140  RH  035%=      5-min Rain = 0
KEN1 111735Z 17012KT 31/14 A3013 RMK A01 T03140139  RH  035%=      5-min Rain = 0
KEN1 111736Z 16010KT 31/13 A3013 RMK A01 T03110134  RH  034%=      5-min Rain = 0
KEN1 111737Z 17008KT 31/14 A3013 RMK A01 T03090138  RH  035%=      5-min Rain = 0
KEN1 111738Z 18012KT 31/14 A3013 RMK A01 T03110142  RH  036%=      5-min Rain = 0
KEN1 111739Z 19011KT 31/14 A3013 RMK A01 T03110143  RH  036%=      5-min Rain = 0
KEN1 111740Z 18013KT 31/14 A3013 RMK A01 T03110144  RH  036%=      5-min Rain = 0
KEN1 111741Z 17014G19KT 31/14 A3013 RMK A01 T03110141  RH  036%=      5-min Rain = 0
KEN1 111742Z 16015KT 31/14 A3013 RMK A01 T03110139  RH  035%=      5-min Rain = 0
KEN1 111743Z 15012KT 31/14 A3013 RMK A01 T03110139  RH  035%=      5-min Rain = 0
KEN1 111744Z 16013KT 31/14 A3013 RMK A01 T03140140  RH  035%=      5-min Rain = 0
KEN1 111745Z 16016KT 32/14 A3013 RMK A01 T03170141  RH  034%=      5-min Rain = 0
KEN1 111746Z 15016KT 32/14 A3013 RMK A01 T03190143  RH  034%=      5-min Rain = 0
KEN1 111747Z 17014KT 32/14 A3013 RMK A01 T03180143  RH  035%=      5-min Rain = 0
KEN1 111748Z 16009KT 31/14 A3013 RMK A01 T03130142  RH  035%=      5-min Rain = 0
KEN1 111749Z 16009KT 31/14 A3013 RMK A01 T03090144  RH  037%=      5-min Rain = 0
KEN1 111750Z 15008KT 31/15 A3013 RMK A01 T03110146  RH  037%=      5-min Rain = 0
KEN1 111751Z 17013KT 32/15 A3013 RMK A01 T03150147  RH  036%=      5-min Rain = 0
KEN1 111752Z 18011KT 32/14 A3012 RMK A01 T03170143  RH  035%=      5-min Rain = 0
KEN1 111753Z 18012KT 32/14 A3012 RMK A01 T03160143  RH  035%=      5-min Rain = 0
KEN1 111754Z 19009G14KT 32/14 A3012 RMK A01 T03180142  RH  034%=      5-min Rain = 0
KEN1 111755Z 17014KT 32/14 A3012 RMK A01 T03150142  RH  035%=      5-min Rain = 0
KEN1 111756Z 17011KT 32/14 A3012 RMK A01 T03150141  RH  035%=      5-min Rain = 0
KEN1 111757Z 16010G16KT 32/14 A3012 RMK A01 T03180142  RH  034%=      5-min Rain = 0
KEN1 111758Z 17012KT 32/14 A3012 RMK A01 T03200140  RH  034%=      5-min Rain = 0
KEN1 111759Z 17010KT 32/14 A3012 RMK A01 T03170140  RH  034%=      5-min Rain = 0
KEN1 111800Z 18008KT 31/14 A3012 RMK A01 T03130141  RH  035%=      5-min Rain = 0
KEN1 111801Z 18009KT 31/14 A3012 RMK A01 T03140142  RH  035%=      5-min Rain = 0
KEN1 111802Z 20013KT 32/14 A3012 RMK A01 T03180143  RH  035%=      5-min Rain = 0
KEN1 111803Z 18013KT 32/15 A3012 RMK A01 T03200146  RH  035%=      5-min Rain = 0
KEN1 111804Z 17012KT 32/15 A3012 RMK A01 T03230145  RH  034%=      5-min Rain = 0
KEN1 111805Z 16012KT 33/14 A3012 RMK A01 T03250144  RH  034%=      5-min Rain = 0
KEN1 111806Z 17017KT 33/14 A3012 RMK A01 T03270140  RH  032%=      5-min Rain = 0
KEN1 111807Z 16014KT 32/14 A3012 RMK A01 T03220137  RH  033%=      5-min Rain = 0
KEN1 111808Z 17013KT 32/14 A3012 RMK A01 T03210138  RH  033%=      5-min Rain = 0
KEN1 111809Z 17014KT 32/14 A3012 RMK A01 T03200139  RH  033%=      5-min Rain = 0
KEN1 111810Z 18013KT 32/14 A3012 RMK A01 T03210138  RH  033%=      5-min Rain = 0
KEN1 111811Z 20012G17KT 32/14 A3012 RMK A01 T03190141  RH  034%=      5-min Rain = 0
KEN1 111812Z 17014KT 32/14 A3012 RMK A01 T03170143  RH  035%=      5-min Rain = 0
KEN1 111813Z 15014KT 32/14 A3012 RMK A01 T03210143  RH  034%=      5-min Rain = 0
KEN1 111814Z 17012KT 32/14 A3012 RMK A01 T03200141  RH  034%=      5-min Rain = 0
KEN1 111815Z 16015KT 32/14 A3012 RMK A01 T03150142  RH  035%=      5-min Rain = 0
KEN1 111816Z 16015KT 31/14 A3012 RMK A01 T03140141  RH  035%=      5-min Rain = 0
KEN1 111817Z 16014KT 31/14 A3012 RMK A01 T03130141  RH  035%=      5-min Rain = 0
KEN1 111818Z 15013KT 32/14 A3012 RMK A01 T03150142  RH  035%=      5-min Rain = 0
KEN1 111819Z 15012KT 32/14 A3012 RMK A01 T03220142  RH  034%=      5-min Rain = 0
KEN1 111820Z 18014G21KT 32/14 A3011 RMK A01 T03230143  RH  034%=      5-min Rain = 0
KEN1 111821Z 19015KT 32/14 A3011 RMK A01 T03210140  RH  033%=      5-min Rain = 0
KEN1 111822Z 17016G21KT 32/14 A3012 RMK A01 T03200143  RH  034%=      5-min Rain = 0
KEN1 111823Z 18011KT 32/14 A3012 RMK A01 T03180143  RH  034%=      5-min Rain = 0
KEN1 111824Z 17012G18KT 32/15 A3012 RMK A01 T03180145  RH  035%=      5-min Rain = 0
KEN1 111825Z 16020KT 32/15 A3012 RMK A01 T03220146  RH  034%=      5-min Rain = 0
KEN1 111826Z 18015KT 32/14 A3012 RMK A01 T03230144  RH  034%=      5-min Rain = 0
KEN1 111827Z 19011KT 32/14 A3012 RMK A01 T03190144  RH  035%=      5-min Rain = 0
KEN1 111828Z 16012KT 32/15 A3012 RMK A01 T03180145  RH  035%=      5-min Rain = 0
KEN1 111829Z 17013KT 32/15 A3012 RMK A01 T03220147  RH  035%=      5-min Rain = 0
KEN1 111830Z 17010KT 33/14 A3011 RMK A01 T03250144  RH  034%=      5-min Rain = 0
KEN1 111831Z 18013G18KT 32/14 A3011 RMK A01 T03220142  RH  033%=      5-min Rain = 0
KEN1 111832Z 18015KT 32/14 A3011 RMK A01 T03200141  RH  034%=      5-min Rain = 0
KEN1 111833Z 17014KT 32/14 A3011 RMK A01 T03190140  RH  034%=      5-min Rain = 0
KEN1 111834Z 16012KT 32/14 A3011 RMK A01 T03170142  RH  035%=      5-min Rain = 0
KEN1 111835Z 16012G19KT 32/15 A3011 RMK A01 T03240146  RH  034%=      5-min Rain = 0
KEN1 111836Z 16015KT 33/14 A3011 RMK A01 T03260140  RH  032%=      5-min Rain = 0
KEN1 111837Z 16014KT 32/14 A3011 RMK A01 T03200139  RH  033%=      5-min Rain = 0
KEN1 111838Z 16012KT 32/14 A3011 RMK A01 T03170139  RH  034%=      5-min Rain = 0
KEN1 111839Z 16012KT 32/14 A3011 RMK A01 T03180140  RH  034%=      5-min Rain = 0
KEN1 111840Z 18016KT 32/14 A3011 RMK A01 T03160141  RH  035%=      5-min Rain = 0
KEN1 111841Z 17016KT 31/14 A3011 RMK A01 T03140141  RH  035%=      5-min Rain = 0
KEN1 111842Z 19016KT 32/14 A3011 RMK A01 T03160143  RH  035%=      5-min Rain = 0
KEN1 111843Z 19016KT 32/14 A3011 RMK A01 T03220144  RH  034%=      5-min Rain = 0
KEN1 111844Z 19017KT 32/14 A3011 RMK A01 T03230142  RH  033%=      5-min Rain = 0
KEN1 111845Z 16012KT 32/14 A3011 RMK A01 T03230141  RH  033%=      5-min Rain = 0
KEN1 111846Z 16014KT 33/14 A3011 RMK A01 T03250138  RH  032%=      5-min Rain = 0
KEN1 111847Z 16012KT 32/14 A3011 RMK A01 T03240137  RH  032%=      5-min Rain = 0
KEN1 111848Z 18011KT 32/14 A3011 RMK A01 T03230138  RH  033%=      5-min Rain = 0
KEN1 111849Z 19013KT 32/14 A301 RMK A01 T03230142  RH  033%=      5-min Rain = 0
KEN1 111850Z 17014KT 32/14 A301 RMK A01 T03240141  RH  033%=      5-min Rain = 0
KEN1 111851Z 14011KT 32/14 A301 RMK A01 T03220139  RH  033%=      5-min Rain = 0
KEN1 111852Z 17021G28KT 32/14 A301 RMK A01 T03190139  RH  033%=      5-min Rain = 0
KEN1 111853Z 18017G22KT 32/14 A301 RMK A01 T03160140  RH  034%=      5-min Rain = 0
KEN1 111854Z 18011KT 31/14 A301 RMK A01 T03120139  RH  035%=      5-min Rain = 0
KEN1 111855Z 18015KT 31/14 A301 RMK A01 T03140141  RH  035%=      5-min Rain = 0
KEN1 111856Z 18012KT 32/14 A301 RMK A01 T03180138  RH  033%=      5-min Rain = 0
KEN1 111857Z 17010KT 32/14 A301 RMK A01 T03160139  RH  034%=      5-min Rain = 0
KEN1 111858Z 18010KT 31/14 A301 RMK A01 T03140139  RH  034%=      5-min Rain = 0
KEN1 111859Z 17010KT 31/14 A301 RMK A01 T03130139  RH  035%=      5-min Rain = 0
KEN1 111900Z 17016KT 32/14 A301 RMK A01 T03150140  RH  034%=      5-min Rain = 0
KEN1 111901Z 17016KT 32/14 A301 RMK A01 T03180138  RH  033%=      5-min Rain = 0
KEN1 111902Z 17013KT 32/14 A301 RMK A01 T03170138  RH  034%=      5-min Rain = 0
KEN1 111903Z 17015G20KT 32/14 A301 RMK A01 T03190139  RH  034%=      5-min Rain = 0
KEN1 111904Z 17017KT 32/14 A301 RMK A01 T03210140  RH  033%=      5-min Rain = 0
KEN1 111905Z 17014KT 33/14 A301 RMK A01 T03250140  RH  033%=      5-min Rain = 0
KEN1 111906Z 18012KT 32/14 A301 RMK A01 T03220138  RH  033%=      5-min Rain = 0
KEN1 111907Z 18013G20KT 32/14 A3009 RMK A01 T03180139  RH  034%=      5-min Rain = 0
KEN1 111908Z 17014KT 32/14 A3009 RMK A01 T03210138  RH  033%=      5-min Rain = 0
KEN1 111909Z 18016KT 32/14 A3009 RMK A01 T03230137  RH  032%=      5-min Rain = 0
KEN1 111910Z 18015KT 32/14 A3009 RMK A01 T03240138  RH  032%=      5-min Rain = 0
KEN1 111911Z 18014G20KT 32/14 A3009 RMK A01 T03240139  RH  033%=      5-min Rain = 0
KEN1 111912Z 17016KT 32/14 A3009 RMK A01 T03230137  RH  032%=      5-min Rain = 0
KEN1 111913Z 17017KT 32/14 A3009 RMK A01 T03220136  RH  033%=      5-min Rain = 0
KEN1 111914Z 16015KT 32/14 A3009 RMK A01 T03210136  RH  033%=      5-min Rain = 0
KEN1 111915Z 16012G17KT 32/14 A3009 RMK A01 T03230136  RH  032%=      5-min Rain = 0
KEN1 111916Z 16008KT 32/14 A3009 RMK A01 T03220135  RH  032%=      5-min Rain = 0
KEN1 111917Z 15009KT 32/14 A3009 RMK A01 T03220137  RH  033%=      5-min Rain = 0
KEN1 111918Z 17013G18KT 32/14 A3009 RMK A01 T03240139  RH  033%=      5-min Rain = 0
KEN1 111919Z 18016KT 33/14 A3009 RMK A01 T03270137  RH  032%=      5-min Rain = 0
KEN1 111920Z 19017G23KT 32/13 A3009 RMK A01 T03210134  RH  032%=      5-min Rain = 0
KEN1 111921Z 19017G22KT 32/13 A3009 RMK A01 T03180133  RH  033%=      5-min Rain = 0
KEN1 111922Z 19012KT 32/14 A3009 RMK A01 T03200135  RH  032%=      5-min Rain = 0
KEN1 111923Z 18016KT 32/14 A3009 RMK A01 T03240135  RH  032%=      5-min Rain = 0
KEN1 111924Z 18014KT 33/14 A3009 RMK A01 T03250135  RH  032%=      5-min Rain = 0
KEN1 111925Z 18015KT 33/14 A3009 RMK A01 T03260136  RH  032%=      5-min Rain = 0
KEN1 111926Z 17014KT 33/14 A3009 RMK A01 T03280135  RH  031%=      5-min Rain = 0
KEN1 111927Z 14012G18KT 33/14 A3009 RMK A01 T03270137  RH  032%=      5-min Rain = 0
KEN1 111928Z 15015KT 33/14 A3008 RMK A01 T03270137  RH  032%=      5-min Rain = 0
KEN1 111929Z 17015KT 33/14 A3009 RMK A01 T03270138  RH  032%=      5-min Rain = 0
KEN1 111930Z 16012KT 33/14 A3008 RMK A01 T03280137  RH  031%=      5-min Rain = 0
KEN1 111931Z 16013G18KT 33/14 A3008 RMK A01 T03260138  RH  032%=      5-min Rain = 0
KEN1 111932Z 17019G25KT 33/14 A3008 RMK A01 T03300139  RH  032%=      5-min Rain = 0
KEN1 111933Z 17016KT 33/13 A3008 RMK A01 T03270133  RH  031%=      5-min Rain = 0
KEN1 111934Z 17013KT 32/13 A3008 RMK A01 T03210133  RH  032%=      5-min Rain = 0
KEN1 111935Z 18016KT 32/14 A3008 RMK A01 T03200135  RH  033%=      5-min Rain = 0
KEN1 111936Z 18017KT 33/14 A3008 RMK A01 T03250136  RH  032%=      5-min Rain = 0
KEN1 111937Z 18016KT 33/14 A3008 RMK A01 T03250135  RH  032%=      5-min Rain = 0
KEN1 111938Z 17014KT 32/14 A3008 RMK A01 T03230135  RH  032%=      5-min Rain = 0
KEN1 111939Z 17012KT 32/14 A3008 RMK A01 T03230136  RH  032%=      5-min Rain = 0
KEN1 111940Z 17012KT 32/14 A3008 RMK A01 T03230135  RH  032%=      5-min Rain = 0
KEN1 111941Z 18010KT 32/13 A3008 RMK A01 T03230134  RH  032%=      5-min Rain = 0
KEN1 111942Z 16011KT 32/14 A3008 RMK A01 T03240136  RH  032%=      5-min Rain = 0
KEN1 111943Z 19015KT 33/14 A3008 RMK A01 T03290137  RH  031%=      5-min Rain = 0
KEN1 111944Z 17014KT 33/13 A3008 RMK A01 T03300134  RH  031%=      5-min Rain = 0
KEN1 111945Z 17012KT 33/13 A3008 RMK A01 T03290133  RH  031%=      5-min Rain = 0
KEN1 111946Z 18011KT 33/14 A3008 RMK A01 T03290136  RH  031%=      5-min Rain = 0
KEN1 111947Z 17016G22KT 33/14 A3008 RMK A01 T03330137  RH  031%=      5-min Rain = 0
KEN1 111948Z 17016G22KT 33/14 A3008 RMK A01 T03330135  RH  030%=      5-min Rain = 0
KEN1 111949Z 17014KT 33/14 A3008 RMK A01 T03290135  RH  031%=      5-min Rain = 0
KEN1 111950Z 17017KT 33/14 A3008 RMK A01 T03290137  RH  031%=      5-min Rain = 0
KEN1 111951Z 16015KT 33/14 A3008 RMK A01 T03320137  RH  031%=      5-min Rain = 0
KEN1 111952Z 15016KT 33/14 A3008 RMK A01 T03330137  RH  031%=      5-min Rain = 0
KEN1 111953Z 15016KT 34/14 A3008 RMK A01 T03350135  RH  030%=      5-min Rain = 0
KEN1 111954Z 17015KT 34/14 A3008 RMK A01 T03360136  RH  030%=      5-min Rain = 0
KEN1 111955Z 15014KT 33/14 A3008 RMK A01 T03340136  RH  030%=      5-min Rain = 0
KEN1 111956Z 14017G31KT 33/13 A3007 RMK A01 T03320134  RH  030%=      5-min Rain = 0
KEN1 111957Z 17018G26KT 33/14 A3007 RMK A01 T03320135  RH  030%=      5-min Rain = 0
KEN1 111958Z 15017KT 33/14 A3007 RMK A01 T03330135  RH  030%=      5-min Rain = 0
KEN1 111959Z 16015KT 34/14 A3007 RMK A01 T03360136  RH  030%=      5-min Rain = 0
KEN1 112000Z 17015G20KT 34/14 A3007 RMK A01 T03390137  RH  030%=      5-min Rain = 0
KEN1 112001Z 18017KT 34/14 A3007 RMK A01 T03400137  RH  029%=      5-min Rain = 0
KEN1 112002Z 18014KT 34/14 A3007 RMK A01 T03350135  RH  030%=      5-min Rain = 0
KEN1 112003Z 17018KT 33/14 A3007 RMK A01 T03320136  RH  031%=      5-min Rain = 0
KEN1 112004Z 17019KT 33/14 A3007 RMK A01 T03340136  RH  030%=      5-min Rain = 0
KEN1 112005Z 17016KT 34/14 A3007 RMK A01 T03350135  RH  030%=      5-min Rain = 0
KEN1 112006Z 14014KT 34/14 A3007 RMK A01 T03360136  RH  030%=      5-min Rain = 0
KEN1 112007Z 16014KT 34/14 A3007 RMK A01 T03370135  RH  030%=      5-min Rain = 0
KEN1 112008Z 18017KT 34/14 A3007 RMK A01 T03350136  RH  030%=      5-min Rain = 0
KEN1 112009Z 19018KT 34/14 A3007 RMK A01 T03360137  RH  030%=      5-min Rain = 0
KEN1 112010Z 18017KT 34/13 A3007 RMK A01 T03360134  RH  029%=      5-min Rain = 0
KEN1 112011Z 18015KT 33/14 A3007 RMK A01 T03340135  RH  030%=      5-min Rain = 0
KEN1 112012Z 18012KT 33/13 A3007 RMK A01 T03330133  RH  030%=      5-min Rain = 0
KEN1 112013Z 16011KT 33/13 A3007 RMK A01 T03300133  RH  030%=      5-min Rain = 0
KEN1 112014Z 17011KT 33/13 A3007 RMK A01 T03280133  RH  031%=      5-min Rain = 0
KEN1 112015Z 19013KT 33/14 A3007 RMK A01 T03300135  RH  031%=      5-min Rain = 0
KEN1 112016Z 16014KT 34/14 A3007 RMK A01 T03350136  RH  030%=      5-min Rain = 0
KEN1 112017Z 16011KT 34/14 A3007 RMK A01 T03400137  RH  029%=      5-min Rain = 0
KEN1 112018Z 18014G21KT 34/14 A3007 RMK A01 T03430136  RH  029%=      5-min Rain = 0
KEN1 112019Z 18017KT 34/14 A3007 RMK A01 T03440135  RH  028%=      5-min Rain = 0
KEN1 112020Z 18013KT 34/13 A3007 RMK A01 T03430133  RH  028%=      5-min Rain = 0
KEN1 112021Z 17013KT 34/13 A3007 RMK A01 T03380132  RH  029%=      5-min Rain = 0
KEN1 112022Z 16017G22KT 34/14 A3007 RMK A01 T03360135  RH  030%=      5-min Rain = 0
KEN1 112023Z 16017KT 34/13 A3007 RMK A01 T03350133  RH  029%=      5-min Rain = 0
KEN1 112024Z 16016KT 33/13 A3007 RMK A01 T03310131  RH  030%=      5-min Rain = 0
KEN1 112025Z 15015KT 33/13 A3007 RMK A01 T03300132  RH  030%=      5-min Rain = 0
KEN1 112026Z 16016KT 33/13 A3006 RMK A01 T03320131  RH  030%=      5-min Rain = 0
KEN1 112027Z 17016KT 33/13 A3006 RMK A01 T03340132  RH  029%=      5-min Rain = 0
KEN1 112028Z 16019G24KT 34/13 A3006 RMK A01 T03400134  RH  029%=      5-min Rain = 0
KEN1 112029Z 15015KT 34/13 A3006 RMK A01 T03390130  RH  028%=      5-min Rain = 0
KEN1 112030Z 15010KT 33/13 A3006 RMK A01 T03340130  RH  029%=      5-min Rain = 0
KEN1 112031Z 15013KT 33/13 A3006 RMK A01 T03320131  RH  030%=      5-min Rain = 0
KEN1 112032Z 18016G21KT 33/13 A3006 RMK A01 T03320132  RH  030%=      5-min Rain = 0
KEN1 112033Z 18015KT 33/13 A3006 RMK A01 T03320130  RH  029%=      5-min Rain = 0
KEN1 112034Z 19016KT 33/13 A3006 RMK A01 T03310131  RH  030%=      5-min Rain = 0
KEN1 112035Z 17013KT 33/13 A3006 RMK A01 T03310130  RH  030%=      5-min Rain = 0
KEN1 112036Z 16014KT 33/13 A3006 RMK A01 T03320131  RH  030%=      5-min Rain = 0
KEN1 112037Z 17014KT 34/13 A3006 RMK A01 T03360133  RH  029%=      5-min Rain = 0
KEN1 112038Z 18018G24KT 34/13 A3006 RMK A01 T03370131  RH  029%=      5-min Rain = 0
KEN1 112039Z 17018KT 33/13 A3006 RMK A01 T03320128  RH  029%=      5-min Rain = 0
KEN1 112040Z 17019KT 33/13 A3006 RMK A01 T03310127  RH  029%=      5-min Rain = 0
KEN1 112041Z 16016KT 33/13 A3006 RMK A01 T03320126  RH  029%=      5-min Rain = 0
KEN1 112042Z 17015KT 33/13 A3006 RMK A01 T03320127  RH  029%=      5-min Rain = 0
KEN1 112043Z 16015KT 33/13 A3006 RMK A01 T03320130  RH  029%=      5-min Rain = 0
KEN1 112044Z 16013KT 33/13 A3006 RMK A01 T03330129  RH  029%=      5-min Rain = 0
KEN1 112045Z 16017KT 33/13 A3006 RMK A01 T03340130  RH  029%=      5-min Rain = 0
KEN1 112046Z 16015KT 34/13 A3006 RMK A01 T03350129  RH  029%=      5-min Rain = 0
KEN1 112047Z 14012KT 33/13 A3006 RMK A01 T03340129  RH  029%=      5-min Rain = 0
KEN1 112048Z 17016KT 33/13 A3006 RMK A01 T03320131  RH  030%=      5-min Rain = 0
KEN1 112049Z 17017KT 33/13 A3006 RMK A01 T03290128  RH  030%=      5-min Rain = 0
KEN1 112050Z 18017KT 33/13 A3006 RMK A01 T03250129  RH  030%=      5-min Rain = 0
KEN1 112051Z 18018KT 32/13 A3006 RMK A01 T03220130  RH  031%=      5-min Rain = 0
KEN1 112052Z 18018KT 32/13 A3006 RMK A01 T03200129  RH  031%=      5-min Rain = 0
KEN1 112053Z 18015KT 32/13 A3006 RMK A01 T03220128  RH  031%=      5-min Rain = 0
KEN1 112054Z 17014KT 33/13 A3006 RMK A01 T03260130  RH  030%=      5-min Rain = 0
KEN1 112055Z 17014KT 33/13 A3006 RMK A01 T03310129  RH  029%=      5-min Rain = 0
KEN1 112056Z 18017KT 33/13 A3006 RMK A01 T03340130  RH  029%=      5-min Rain = 0
KEN1 112057Z 17013KT 34/13 A3006 RMK A01 T03360130  RH  029%=      5-min Rain = 0
KEN1 112058Z 17013KT 34/13 A3006 RMK A01 T03410130  RH  028%=      5-min Rain = 0
KEN1 112059Z 17015KT 34/13 A3005 RMK A01 T03390127  RH  028%=      5-min Rain = 0
KEN1 112100Z 18011KT 34/13 A3005 RMK A01 T03350126  RH  028%=      5-min Rain = 0
KEN1 112101Z 16012KT 33/13 A3005 RMK A01 T03320129  RH  029%=      5-min Rain = 0
KEN1 112102Z 16010KT 33/13 A3005 RMK A01 T03340128  RH  029%=      5-min Rain = 0
KEN1 112103Z 16011KT 34/13 A3005 RMK A01 T03360129  RH  029%=      5-min Rain = 0
KEN1 112104Z 16019KT 34/13 A3005 RMK A01 T03400131  RH  028%=      5-min Rain = 0
KEN1 112105Z 16018G23KT 34/13 A3005 RMK A01 T03390128  RH  028%=      5-min Rain = 0
KEN1 112106Z 16013G21KT 34/13 A3005 RMK A01 T03350128  RH  029%=      5-min Rain = 0
KEN1 112107Z 16013G18KT 33/13 A3005 RMK A01 T03340129  RH  029%=      5-min Rain = 0
KEN1 112108Z 19012KT 34/13 A3005 RMK A01 T03380130  RH  028%=      5-min Rain = 0
KEN1 112109Z 18012KT 34/13 A3005 RMK A01 T03440133  RH  028%=      5-min Rain = 0
KEN1 112110Z 18014KT 35/13 A3005 RMK A01 T03470131  RH  027%=      5-min Rain = 0
KEN1 112111Z 19017G23KT 34/13 A3005 RMK A01 T03440130  RH  027%=      5-min Rain = 0
KEN1 112112Z 20020G25KT 34/13 A3005 RMK A01 T03410128  RH  028%=      5-min Rain = 0
KEN1 112113Z 18019KT 34/13 A3005 RMK A01 T03420128  RH  027%=      5-min Rain = 0
KEN1 112114Z 16018KT 34/13 A3005 RMK A01 T03430128  RH  027%=      5-min Rain = 0
KEN1 112115Z 15017KT 34/13 A3005 RMK A01 T03440128  RH  027%=      5-min Rain = 0
KEN1 112116Z 17015KT 34/13 A3005 RMK A01 T03430128  RH  027%=      5-min Rain = 0
KEN1 112117Z 18015KT 34/13 A3005 RMK A01 T03390127  RH  028%=      5-min Rain = 0
KEN1 112118Z 16014KT 34/13 A3005 RMK A01 T03390128  RH  028%=      5-min Rain = 0
KEN1 112119Z 17013KT 34/13 A3005 RMK A01 T03400128  RH  028%=      5-min Rain = 0
KEN1 112120Z 20016KT 34/13 A3005 RMK A01 T03430129  RH  027%=      5-min Rain = 0
KEN1 112121Z 20014KT 35/13 A3005 RMK A01 T03450127  RH  027%=      5-min Rain = 0
KEN1 112122Z 19011KT 34/13 A3005 RMK A01 T03420125  RH  027%=      5-min Rain = 0
KEN1 112123Z 17014KT 34/13 A3005 RMK A01 T03410126  RH  027%=      5-min Rain = 0
KEN1 112124Z 18012KT 34/13 A3005 RMK A01 T03390126  RH  028%=      5-min Rain = 0
KEN1 112125Z 18010KT 34/13 A3005 RMK A01 T03370126  RH  028%=      5-min Rain = 0
KEN1 112126Z 17013KT 34/13 A3005 RMK A01 T03360127  RH  028%=      5-min Rain = 0
KEN1 112127Z 15012KT 34/12 A3004 RMK A01 T03380124  RH  027%=      5-min Rain = 0
KEN1 112128Z 14012KT 34/13 A3004 RMK A01 T03370125  RH  028%=      5-min Rain = 0
KEN1 112129Z 17018KT 34/13 A3004 RMK A01 T03390129  RH  028%=      5-min Rain = 0
KEN1 112130Z 18012KT 34/13 A3004 RMK A01 T03430126  RH  027%=      5-min Rain = 0
KEN1 112131Z 18017KT 34/13 A3004 RMK A01 T03420126  RH  027%=      5-min Rain = 0
KEN1 112132Z 19017KT 34/12 A3004 RMK A01 T03410124  RH  027%=      5-min Rain = 0
KEN1 112133Z 20011G18KT 34/12 A3004 RMK A01 T03400123  RH  027%=      5-min Rain = 0
KEN1 112134Z 20010KT 34/13 A3004 RMK A01 T03410126  RH  027%=      5-min Rain = 0
KEN1 112135Z 18014KT 34/13 A3004 RMK A01 T03430127  RH  027%=      5-min Rain = 0
KEN1 112136Z 17015KT 34/13 A3004 RMK A01 T03410125  RH  027%=      5-min Rain = 0
KEN1 112137Z 16016KT 34/13 A3004 RMK A01 T03410128  RH  028%=      5-min Rain = 0
KEN1 112138Z 16019KT 34/13 A3004 RMK A01 T03440130  RH  027%=      5-min Rain = 0
KEN1 112139Z 15017KT 35/13 A3004 RMK A01 T03450129  RH  027%=      5-min Rain = 0
KEN1 112140Z 16014KT 34/13 A3004 RMK A01 T03430128  RH  027%=      5-min Rain = 0
KEN1 112141Z 15016KT 34/13 A3004 RMK A01 T03400128  RH  028%=      5-min Rain = 0
KEN1 112142Z 16016KT 34/13 A3004 RMK A01 T03400127  RH  028%=      5-min Rain = 0
KEN1 112143Z 16018KT 34/13 A3004 RMK A01 T03410127  RH  027%=      5-min Rain = 0
KEN1 112144Z 16015G20KT 34/13 A3004 RMK A01 T03410128  RH  027%=      5-min Rain = 0
KEN1 112145Z 16018KT 34/13 A3004 RMK A01 T03440128  RH  027%=      5-min Rain = 0
KEN1 112146Z 16015KT 34/13 A3004 RMK A01 T03440128  RH  027%=      5-min Rain = 0
KEN1 112147Z 15016KT 34/13 A3004 RMK A01 T03440128  RH  027%=      5-min Rain = 0
KEN1 112148Z 14018G23KT 34/13 A3003 RMK A01 T03430129  RH  027%=      5-min Rain = 0
KEN1 112149Z 15017KT 34/13 A3003 RMK A01 T03430126  RH  027%=      5-min Rain = 0
KEN1 112150Z 16018KT 34/13 A3003 RMK A01 T03420125  RH  027%=      5-min Rain = 0
KEN1 112151Z 15017KT 34/12 A3003 RMK A01 T03400124  RH  027%=      5-min Rain = 0
KEN1 112152Z 15019KT 34/12 A3003 RMK A01 T03400122  RH  027%=      5-min Rain = 0
KEN1 112153Z 15017KT 34/12 A3003 RMK A01 T03380122  RH  027%=      5-min Rain = 0
KEN1 112154Z 15018KT 34/12 A3003 RMK A01 T03410123  RH  027%=      5-min Rain = 0
KEN1 112155Z 17018KT 34/12 A3003 RMK A01 T03430122  RH  026%=      5-min Rain = 0
KEN1 112156Z 15015KT 34/12 A3003 RMK A01 T03400123  RH  027%=      5-min Rain = 0
KEN1 112157Z 16015KT 34/13 A3003 RMK A01 T03400125  RH  027%=      5-min Rain = 0
KEN1 112158Z 18015KT 34/13 A3003 RMK A01 T03430127  RH  027%=      5-min Rain = 0
KEN1 112159Z 18014KT 35/13 A3003 RMK A01 T03450128  RH  027%=      5-min Rain = 0
KEN1 112200Z 17014KT 34/13 A3003 RMK A01 T03430126  RH  027%=      5-min Rain = 0
KEN1 112201Z 17016KT 34/13 A3003 RMK A01 T03400125  RH  027%=      5-min Rain = 0
KEN1 112202Z 17013G18KT 34/12 A3003 RMK A01 T03380124  RH  027%=      5-min Rain = 0
KEN1 112203Z 17018KT 34/13 A3002 RMK A01 T03380125  RH  027%=      5-min Rain = 0
KEN1 112204Z 16015KT 34/12 A3003 RMK A01 T03380124  RH  027%=      5-min Rain = 0
KEN1 112205Z 16015KT 34/13 A3003 RMK A01 T03380125  RH  028%=      5-min Rain = 0
KEN1 112206Z 16015G21KT 34/12 A3002 RMK A01 T03370124  RH  027%=      5-min Rain = 0
KEN1 112207Z 16012KT 34/12 A3002 RMK A01 T03360124  RH  028%=      5-min Rain = 0
KEN1 112208Z 17011KT 34/13 A3002 RMK A01 T03360125  RH  028%=      5-min Rain = 0
KEN1 112209Z 15013KT 34/13 A3002 RMK A01 T03390125  RH  027%=      5-min Rain = 0
KEN1 112210Z 16011KT 34/12 A3002 RMK A01 T03410124  RH  027%=      5-min Rain = 0
KEN1 112211Z 15011KT 34/12 A3002 RMK A01 T03400124  RH  027%=      5-min Rain = 0
KEN1 112212Z 16015KT 34/12 A3002 RMK A01 T03410124  RH  027%=      5-min Rain = 0
KEN1 112213Z 16014KT 34/12 A3002 RMK A01 T03420123  RH  027%=      5-min Rain = 0
KEN1 112214Z 17012KT 34/12 A3002 RMK A01 T03390124  RH  027%=      5-min Rain = 0
KEN1 112215Z 18011KT 34/12 A3002 RMK A01 T03390124  RH  027%=      5-min Rain = 0
KEN1 112216Z 19012KT 34/12 A3002 RMK A01 T03390123  RH  027%=      5-min Rain = 0
KEN1 112217Z 17014KT 34/13 A3002 RMK A01 T03380125  RH  028%=      5-min Rain = 0
KEN1 112218Z 18015KT 34/13 A3002 RMK A01 T03400126  RH  027%=      5-min Rain = 0
KEN1 112219Z 18011KT 34/13 A3002 RMK A01 T03400127  RH  028%=      5-min Rain = 0
KEN1 112220Z 16018G26KT 34/13 A3002 RMK A01 T03390128  RH  028%=      5-min Rain = 0
KEN1 112221Z 15019KT 34/13 A3002 RMK A01 T03410129  RH  028%=      5-min Rain = 0
KEN1 112222Z 15019KT 34/13 A3002 RMK A01 T03430129  RH  027%=      5-min Rain = 0
KEN1 112223Z 15017KT 34/13 A3002 RMK A01 T03430128  RH  027%=      5-min Rain = 0
KEN1 112224Z 16018KT 34/13 A3002 RMK A01 T03400128  RH  028%=      5-min Rain = 0
KEN1 112225Z 16016KT 34/13 A3002 RMK A01 T03400128  RH  028%=      5-min Rain = 0
KEN1 112226Z 16015KT 34/13 A3002 RMK A01 T03390129  RH  028%=      5-min Rain = 0
KEN1 112227Z 14014KT 34/13 A3002 RMK A01 T03390129  RH  028%=      5-min Rain = 0
KEN1 112228Z 14014KT 34/13 A3002 RMK A01 T03380129  RH  028%=      5-min Rain = 0
KEN1 112229Z 15017KT 34/13 A3002 RMK A01 T03400131  RH  028%=      5-min Rain = 0
KEN1 112230Z 19016KT 34/13 A3002 RMK A01 T03430129  RH  027%=      5-min Rain = 0
KEN1 112231Z 18014KT 34/13 A3002 RMK A01 T03430127  RH  027%=      5-min Rain = 0
KEN1 112232Z 17016KT 35/13 A3002 RMK A01 T03450129  RH  027%=      5-min Rain = 0
KEN1 112233Z 18020KT 35/13 A3002 RMK A01 T03460127  RH  027%=      5-min Rain = 0
KEN1 112234Z 18018G23KT 34/13 A3002 RMK A01 T03410127  RH  027%=      5-min Rain = 0
KEN1 112235Z 17015KT 34/13 A3002 RMK A01 T03400127  RH  028%=      5-min Rain = 0
KEN1 112236Z 17014KT 34/13 A3002 RMK A01 T03400126  RH  027%=      5-min Rain = 0
KEN1 112237Z 17012KT 34/13 A3002 RMK A01 T03400127  RH  027%=      5-min Rain = 0
KEN1 112238Z 16013G20KT 34/13 A3002 RMK A01 T03430128  RH  027%=      5-min Rain = 0
KEN1 112239Z 15014G20KT 35/13 A3002 RMK A01 T03460126  RH  026%=      5-min Rain = 0
KEN1 112240Z 15013KT 34/13 A3002 RMK A01 T03430126  RH  027%=      5-min Rain = 0
KEN1 112241Z 15013G18KT 34/13 A3002 RMK A01 T03390127  RH  028%=      5-min Rain = 0
KEN1 112242Z 15015KT 34/13 A3002 RMK A01 T03360128  RH  028%=      5-min Rain = 0
KEN1 112243Z 14017KT 33/13 A3002 RMK A01 T03330128  RH  029%=      5-min Rain = 0
KEN1 112244Z 14016KT 33/13 A3002 RMK A01 T03320126  RH  029%=      5-min Rain = 0
KEN1 112245Z 14012KT 33/13 A3002 RMK A01 T03310126  RH  029%=      5-min Rain = 0
KEN1 112246Z 15011KT 33/13 A3002 RMK A01 T03340128  RH  029%=      5-min Rain = 0
KEN1 112247Z 15011KT 34/13 A3002 RMK A01 T03390127  RH  028%=      5-min Rain = 0
KEN1 112248Z 16013KT 34/13 A3002 RMK A01 T03400128  RH  028%=      5-min Rain = 0
KEN1 112249Z 17013KT 34/13 A3002 RMK A01 T03410129  RH  028%=      5-min Rain = 0
KEN1 112250Z 15016KT 34/13 A3002 RMK A01 T03430127  RH  027%=      5-min Rain = 0
KEN1 112251Z 15017KT 34/13 A3002 RMK A01 T03440126  RH  027%=      5-min Rain = 0
KEN1 112252Z 15016KT 34/13 A3002 RMK A01 T03430127  RH  027%=      5-min Rain = 0
KEN1 112253Z 15014KT 34/13 A3002 RMK A01 T03430128  RH  027%=      5-min Rain = 0
KEN1 112254Z 15012KT 34/13 A3002 RMK A01 T03430129  RH  027%=      5-min Rain = 0
KEN1 112255Z 18014KT 34/13 A3002 RMK A01 T03440130  RH  028%=      5-min Rain = 0
KEN1 112256Z 18020KT 35/13 A3002 RMK A01 T03450130  RH  027%=      5-min Rain = 0
KEN1 112257Z 18014KT 34/13 A3002 RMK A01 T03420128  RH  027%=      5-min Rain = 0
KEN1 112258Z 17014KT 34/13 A3002 RMK A01 T03420131  RH  028%=      5-min Rain = 0
KEN1 112259Z 16014KT 35/13 A3002 RMK A01 T03460129  RH  027%=      5-min Rain = 0
KEN1 112300Z 16012KT 35/13 A3002 RMK A01 T03450127  RH  027%=      5-min Rain = 0
KEN1 112301Z 15013KT 34/13 A3002 RMK A01 T03410128  RH  028%=      5-min Rain = 0
KEN1 112302Z 15015KT 34/13 A3002 RMK A01 T03380128  RH  028%=      5-min Rain = 0
KEN1 112303Z 16014KT 34/13 A3002 RMK A01 T03370128  RH  028%=      5-min Rain = 0
KEN1 112304Z 16017KT 34/13 A3002 RMK A01 T03350126  RH  028%=      5-min Rain = 0
KEN1 112305Z 16018KT 33/13 A3002 RMK A01 T03330125  RH  028%=      5-min Rain = 0
KEN1 112306Z 17014KT 33/12 A3002 RMK A01 T03320124  RH  028%=      5-min Rain = 0
KEN1 112307Z 18013KT 33/13 A3002 RMK A01 T03320125  RH  028%=      5-min Rain = 0
KEN1 112308Z 19012KT 33/12 A3002 RMK A01 T03310123  RH  028%=      5-min Rain = 0
KEN1 112309Z 18009KT 33/12 A3002 RMK A01 T03290122  RH  028%=      5-min Rain = 0
KEN1 112310Z 18010KT 33/12 A3002 RMK A01 T03290124  RH  029%=      5-min Rain = 0
KEN1 112311Z 18013G19KT 33/12 A3002 RMK A01 T03290124  RH  029%=      5-min Rain = 0
KEN1 112312Z 18016KT 33/12 A3002 RMK A01 T03290124  RH  029%=      5-min Rain = 0
KEN1 112313Z 19013KT 33/12 A3002 RMK A01 T03290124  RH  029%=      5-min Rain = 0
KEN1 112314Z 19011KT 33/12 A3002 RMK A01 T03310123  RH  028%=      5-min Rain = 0
KEN1 112315Z 19015KT 33/13 A3002 RMK A01 T03340125  RH  028%=      5-min Rain = 0
KEN1 112316Z 19017KT 34/13 A3002 RMK A01 T03380125  RH  028%=      5-min Rain = 0
KEN1 112317Z 19014KT 34/13 A3002 RMK A01 T03390125  RH  027%=      5-min Rain = 0
KEN1 112318Z 19016KT 34/13 A3003 RMK A01 T03390125  RH  027%=      5-min Rain = 0
KEN1 112319Z 18014KT 34/13 A3003 RMK A01 T03390125  RH  027%=      5-min Rain = 0
KEN1 112320Z 17016KT 34/12 A3003 RMK A01 T03400124  RH  027%=      5-min Rain = 0
KEN1 112321Z 17013KT 34/12 A3003 RMK A01 T03410123  RH  027%=      5-min Rain = 0
KEN1 112322Z 17011KT 34/12 A3003 RMK A01 T03400124  RH  027%=      5-min Rain = 0
KEN1 112323Z 18013KT 34/13 A3003 RMK A01 T03390126  RH  027%=      5-min Rain = 0
KEN1 112324Z 18014KT 34/13 A3003 RMK A01 T03400125  RH  027%=      5-min Rain = 0
KEN1 112325Z 18013KT 34/13 A3003 RMK A01 T03390125  RH  027%=      5-min Rain = 0
KEN1 112326Z 19013KT 34/13 A3003 RMK A01 T03370125  RH  028%=      5-min Rain = 0
KEN1 112327Z 18013KT 34/13 A3003 RMK A01 T03360125  RH  028%=      5-min Rain = 0
KEN1 112328Z 18012KT 34/13 A3003 RMK A01 T03360125  RH  028%=      5-min Rain = 0
KEN1 112329Z 17010KT 34/13 A3003 RMK A01 T03360127  RH  028%=      5-min Rain = 0
KEN1 112330Z 16011KT 34/13 A3003 RMK A01 T03370128  RH  028%=      5-min Rain = 0
KEN1 112331Z 17011KT 34/13 A3003 RMK A01 T03350126  RH  028%=      5-min Rain = 0
KEN1 112332Z 18011KT 33/13 A3003 RMK A01 T03310126  RH  029%=      5-min Rain = 0
KEN1 112333Z 18011KT 33/12 A3003 RMK A01 T03290123  RH  029%=      5-min Rain = 0
KEN1 112334Z 17010KT 33/12 A3003 RMK A01 T03270124  RH  029%=      5-min Rain = 0
KEN1 112335Z 17010KT 33/13 A3003 RMK A01 T03260125  RH  030%=      5-min Rain = 0
KEN1 112336Z 17010KT 33/13 A3003 RMK A01 T03260126  RH  030%=      5-min Rain = 0
KEN1 112337Z 18011KT 33/12 A3003 RMK A01 T03260124  RH  029%=      5-min Rain = 0
KEN1 112338Z 17011KT 33/13 A3002 RMK A01 T03280126  RH  029%=      5-min Rain = 0
KEN1 112339Z 16012KT 33/13 A3002 RMK A01 T03300127  RH  029%=      5-min Rain = 0
KEN1 112340Z 17011KT 33/13 A3002 RMK A01 T03310126  RH  029%=      5-min Rain = 0
KEN1 112341Z 16016KT 33/13 A3002 RMK A01 T03310127  RH  029%=      5-min Rain = 0
KEN1 112342Z 15017KT 33/13 A3002 RMK A01 T03300128  RH  029%=      5-min Rain = 0
KEN1 112343Z 16016KT 33/13 A3002 RMK A01 T03290128  RH  029%=      5-min Rain = 0
KEN1 112344Z 16016KT 33/13 A3002 RMK A01 T03300127  RH  029%=      5-min Rain = 0
KEN1 112345Z 17015KT 33/13 A3002 RMK A01 T03330129  RH  029%=      5-min Rain = 0
KEN1 112346Z 17014KT 34/13 A3002 RMK A01 T03360128  RH  028%=      5-min Rain = 0
KEN1 112347Z 16013KT 34/13 A3002 RMK A01 T03370129  RH  028%=      5-min Rain = 0
KEN1 112348Z 16014KT 34/13 A3002 RMK A01 T03390130  RH  028%=      5-min Rain = 0
KEN1 112349Z 16013KT 34/13 A3002 RMK A01 T03380129  RH  028%=      5-min Rain = 0
KEN1 112350Z 15015KT 34/13 A3002 RMK A01 T03370129  RH  028%=      5-min Rain = 0
KEN1 112351Z 16018KT 34/13 A3002 RMK A01 T03350128  RH  029%=      5-min Rain = 0
KEN1 112352Z 16018KT 33/13 A3002 RMK A01 T03310128  RH  029%=      5-min Rain = 0
KEN1 112353Z 15016KT 33/13 A3002 RMK A01 T03280128  RH  030%=      5-min Rain = 0
KEN1 112354Z 16017KT 33/13 A3002 RMK A01 T03260128  RH  030%=      5-min Rain = 0
KEN1 112355Z 16015KT 33/13 A3002 RMK A01 T03250128  RH  030%=      5-min Rain = 0
KEN1 112356Z 15015KT 32/13 A3002 RMK A01 T03240129  RH  030%=      5-min Rain = 0
KEN1 112357Z 15014KT 32/13 A3002 RMK A01 T03230127  RH  030%=      5-min Rain = 0
KEN1 112358Z 15013KT 32/13 A3002 RMK A01 T03230128  RH  031%=      5-min Rain = 0
KEN1 112359Z 15013KT 32/13 A3002 RMK A01 T03230128  RH  031%=      5-min Rain = 0
KEN1 120000Z 14014KT 32/13 A3002 RMK A01 T03220127  RH  031%=      5-min Rain = 0
KEN1 120001Z 15016KT 32/13 A3002 RMK A01 T03220127  RH  031%=      5-min Rain = 0
KEN1 120002Z 15015KT 32/13 A3002 RMK A01 T03220127  RH  031%=      5-min Rain = 0
KEN1 120003Z 15019KT 32/13 A3003 RMK A01 T03220128  RH  031%=      5-min Rain = 0
KEN1 120004Z 17013KT 32/13 A3003 RMK A01 T03230129  RH  031%=      5-min Rain = 0
KEN1 120005Z 16013KT 32/13 A3003 RMK A01 T03230129  RH  031%=      5-min Rain = 0
KEN1 120006Z 17014KT 32/13 A3003 RMK A01 T03230130  RH  031%=      5-min Rain = 0
KEN1 120007Z 17013KT 32/13 A3003 RMK A01 T03220130  RH  031%=      5-min Rain = 0
KEN1 120008Z 16012KT 32/13 A3003 RMK A01 T03210130  RH  031%=      5-min Rain = 0
KEN1 120009Z 16014KT 32/13 A3003 RMK A01 T03200129  RH  031%=      5-min Rain = 0
KEN1 120010Z 16014KT 32/13 A3003 RMK A01 T03200128  RH  031%=      5-min Rain = 0
KEN1 120011Z 16013KT 32/13 A3002 RMK A01 T03190127  RH  031%=      5-min Rain = 0
KEN1 120012Z 17014KT 32/13 A3002 RMK A01 T03190128  RH  031%=      5-min Rain = 0
KEN1 120013Z 16011KT 32/13 A3003 RMK A01 T03180128  RH  031%=      5-min Rain = 0
KEN1 120014Z 17013KT 32/13 A3002 RMK A01 T03180128  RH  031%=      5-min Rain = 0
KEN1 120015Z 16012KT 32/13 A3002 RMK A01 T03180128  RH  031%=      5-min Rain = 0
KEN1 120016Z 16012KT 32/13 A3002 RMK A01 T03180127  RH  031%=      5-min Rain = 0
KEN1 120017Z 16012KT 32/13 A3002 RMK A01 T03170127  RH  031%=      5-min Rain = 0
KEN1 120018Z 16012KT 32/13 A3002 RMK A01 T03170127  RH  031%=      5-min Rain = 0
KEN1 120019Z 16013KT 32/13 A3002 RMK A01 T03170128  RH  032%=      5-min Rain = 0
KEN1 120020Z 16012KT 32/13 A3002 RMK A01 T03160128  RH  032%=      5-min Rain = 0
KEN1 120021Z 16010KT 32/13 A3002 RMK A01 T03160128  RH  032%=      5-min Rain = 0
KEN1 120022Z 16011KT 32/13 A3002 RMK A01 T03160129  RH  032%=      5-min Rain = 0
KEN1 120023Z 16012KT 32/13 A3002 RMK A01 T03150129  RH  032%=      5-min Rain = 0
KEN1 120024Z 16011KT 32/13 A3002 RMK A01 T03150129  RH  032%=      5-min Rain = 0
KEN1 120025Z 16010KT 32/13 A3002 RMK A01 T03150129  RH  032%=      5-min Rain = 0
KEN1 120026Z 15013KT 32/13 A3002 RMK A01 T03150129  RH  032%=      5-min Rain = 0
KEN1 120027Z 15010KT 32/13 A3002 RMK A01 T03150129  RH  032%=      5-min Rain = 0
KEN1 120028Z 16011KT 31/13 A3002 RMK A01 T03140130  RH  032%=      5-min Rain = 0
KEN1 120029Z 16011KT 31/13 A3002 RMK A01 T03140130  RH  033%=      5-min Rain = 0
KEN1 120030Z 16009KT 31/13 A3002 RMK A01 T03140131  RH  033%=      5-min Rain = 0
KEN1 120031Z 16009KT 31/13 A3002 RMK A01 T03140131  RH  033%=      5-min Rain = 0
KEN1 120032Z 16010KT 31/13 A3002 RMK A01 T03130130  RH  033%=      5-min Rain = 0
KEN1 120033Z 16010KT 31/13 A3002 RMK A01 T03130131  RH  033%=      5-min Rain = 0
KEN1 120034Z 17010KT 31/13 A3002 RMK A01 T03120132  RH  033%=      5-min Rain = 0
KEN1 120035Z 17011KT 31/13 A3003 RMK A01 T03120132  RH  033%=      5-min Rain = 0
KEN1 120036Z 17012KT 31/13 A3003 RMK A01 T03120132  RH  033%=      5-min Rain = 0
KEN1 120037Z 18011KT 31/13 A3003 RMK A01 T03120133  RH  034%=      5-min Rain = 0
KEN1 120038Z 18012KT 31/13 A3003 RMK A01 T03120133  RH  034%=      5-min Rain = 0
KEN1 120039Z 18012KT 31/13 A3003 RMK A01 T03120133  RH  034%=      5-min Rain = 0
KEN1 120040Z 19011KT 31/13 A3003 RMK A01 T03120133  RH  034%=      5-min Rain = 0
KEN1 120041Z 19013KT 31/13 A3003 RMK A01 T03120133  RH  034%=      5-min Rain = 0
KEN1 120042Z 20013KT 31/13 A3004 RMK A01 T03120133  RH  034%=      5-min Rain = 0
KEN1 120043Z 22013KT 31/13 A3004 RMK A01 T03120133  RH  034%=      5-min Rain = 0
KEN1 120044Z 22016G24KT 31/14 A3004 RMK A01 T03100144  RH  036%=      5-min Rain = 0
KEN1 120045Z 21017KT 31/15 A3004 RMK A01 T03060147  RH  038%=      5-min Rain = 0
KEN1 120046Z 22018KT 30/15 A3004 RMK A01 T03020149  RH  039%=      5-min Rain = 0
KEN1 120047Z 22018KT 30/15 A3005 RMK A01 T02990151  RH  040%=      5-min Rain = 0
KEN1 120048Z 22015KT 30/15 A3005 RMK A01 T02970151  RH  041%=      5-min Rain = 0
KEN1 120049Z 23014KT 30/15 A3005 RMK A01 T02960152  RH  041%=      5-min Rain = 0
KEN1 120050Z 23018KT 30/15 A3005 RMK A01 T02950152  RH  042%=      5-min Rain = 0
KEN1 120051Z 23016KT 29/15 A3005 RMK A01 T02940152  RH  042%=      5-min Rain = 0
KEN1 120052Z 23018KT 29/15 A3005 RMK A01 T02930152  RH  042%=      5-min Rain = 0
KEN1 120053Z 23017KT 29/15 A3005 RMK A01 T02920152  RH  043%=      5-min Rain = 0
KEN1 120054Z 23017KT 29/15 A3005 RMK A01 T02920151  RH  042%=      5-min Rain = 0
KEN1 120055Z 23016KT 29/15 A3005 RMK A01 T02910151  RH  042%=      5-min Rain = 0
KEN1 120056Z 23014KT 29/15 A3005 RMK A01 T02920151  RH  042%=      5-min Rain = 0
KEN1 120057Z 23016KT 29/15 A3005 RMK A01 T02920150  RH  042%=      5-min Rain = 0
KEN1 120058Z 23016KT 29/15 A3006 RMK A01 T02910149  RH  042%=      5-min Rain = 0
KEN1 120059Z 23012KT 29/15 A3006 RMK A01 T02910149  RH  042%=      5-min Rain = 0
KEN1 120100Z 23013KT 29/15 A3006 RMK A01 T02910149  RH  042%=      5-min Rain = 0
KEN1 120101Z 24011KT 29/15 A3006 RMK A01 T02910149  RH  042%=      5-min Rain = 0
KEN1 120102Z 24011KT 29/15 A3006 RMK A01 T02910149  RH  042%=      5-min Rain = 0
KEN1 120103Z 25012KT 29/15 A3006 RMK A01 T02910149  RH  042%=      5-min Rain = 0
KEN1 120104Z 25013G18KT 29/15 A3006 RMK A01 T02920149  RH  042%=      5-min Rain = 0
KEN1 120105Z 25016KT 29/15 A3006 RMK A01 T02920149  RH  042%=      5-min Rain = 0
KEN1 120106Z 25014KT 29/15 A3007 RMK A01 T02920149  RH  042%=      5-min Rain = 0
KEN1 120107Z 26013KT 29/15 A3007 RMK A01 T02920149  RH  042%=      5-min Rain = 0
KEN1 120108Z 28017G22KT 29/15 A3007 RMK A01 T02910149  RH  042%=      5-min Rain = 0
KEN1 120109Z 28016KT 28/15 A3007 RMK A01 T02780149  RH  045%=      5-min Rain = 0
KEN1 120110Z 28016KT 27/15 A3007 RMK A01 T02670149  RH  048%=      5-min Rain = 0
KEN1 120111Z 28018KT 26/15 A3008 RMK A01 T02620150  RH  050%=      5-min Rain = 0
KEN1 120112Z 29013KT 26/15 A3008 RMK A01 T02590151  RH  051%=      5-min Rain = 0
KEN1 120113Z 29018KT 26/15 A3008 RMK A01 T02580151  RH  051%=      5-min Rain = 0
KEN1 120114Z 29020KT 26/15 A3008 RMK A01 T02580151  RH  052%=      5-min Rain = 0
KEN1 120115Z 29023KT 26/15 A3009 RMK A01 T02550152  RH  053%=      5-min Rain = 0
KEN1 120116Z 30018KT 25/15 A3009 RMK A01 T02510153  RH  054%=      5-min Rain = 0
KEN1 120117Z 31018KT 25/15 A3009 RMK A01 T02470153  RH  056%=      5-min Rain = 0
KEN1 120118Z 31016G23KT 24/15 A3009 RMK A01 T02430154  RH  057%=      5-min Rain = 0
KEN1 120119Z 31017G23KT 24/15 A3009 RMK A01 T02390154  RH  059%=      5-min Rain = 0
KEN1 120120Z 31023G28KT 24/15 A3009 RMK A01 T02360154  RH  060%=      5-min Rain = 0
KEN1 120121Z 31022KT 23/16 A3009 RMK A01 T02320155  RH  062%=      5-min Rain = 0
KEN1 120122Z 32020KT 23/16 A3009 RMK A01 T02300156  RH  063%=      5-min Rain = 0
KEN1 120123Z 32022KT 23/16 A3009 RMK A01 T02290156  RH  064%=      5-min Rain = 0
KEN1 120124Z 31021KT 23/16 A3009 RMK A01 T02280156  RH  064%=      5-min Rain = 0
KEN1 120125Z 31021KT 23/16 A301 RMK A01 T02270157  RH  064%=      5-min Rain = 0
KEN1 120126Z 32018G23KT 23/16 A301 RMK A01 T02260156  RH  065%=      5-min Rain = 0
KEN1 120127Z 32019KT 23/16 A301 RMK A01 T02260156  RH  065%=      5-min Rain = 0
KEN1 120128Z 32018KT 23/16 A3009 RMK A01 T02260156  RH  065%=      5-min Rain = 0
KEN1 120129Z 32017KT 23/16 A3009 RMK A01 T02260156  RH  065%=      5-min Rain = 0
KEN1 120130Z 32018KT 23/16 A3009 RMK A01 T02270155  RH  064%=      5-min Rain = 0
KEN1 120131Z 32017KT 23/15 A3009 RMK A01 T02270154  RH  063%=      5-min Rain = 0
KEN1 120132Z 32014KT 23/15 A3009 RMK A01 T02270154  RH  063%=      5-min Rain = 0
KEN1 120133Z 32016KT 23/15 A3009 RMK A01 T02280154  RH  063%=      5-min Rain = 0
KEN1 120134Z 32015KT 23/15 A301 RMK A01 T02280154  RH  063%=      5-min Rain = 0
KEN1 120135Z 32013KT 23/15 A301 RMK A01 T02270154  RH  063%=      5-min Rain = 0
KEN1 120136Z 31011G16KT 23/15 A301 RMK A01 T02270153  RH  063%=      5-min Rain = 0
KEN1 120137Z 31011KT 23/15 A301 RMK A01 T02290153  RH  062%=      5-min Rain = 0
KEN1 120138Z 31013KT 23/15 A301 RMK A01 T02300153  RH  062%=      5-min Rain = 0
KEN1 120139Z 32013KT 23/15 A301 RMK A01 T02300152  RH  062%=      5-min Rain = 0
KEN1 120140Z 32012KT 23/15 A301 RMK A01 T02300152  RH  061%=      5-min Rain = 0
KEN1 120141Z 31013KT 23/15 A301 RMK A01 T02310151  RH  061%=      5-min Rain = 0
KEN1 120142Z 32012KT 23/15 A301 RMK A01 T02310151  RH  061%=      5-min Rain = 0
KEN1 120143Z 31012G17KT 23/15 A301 RMK A01 T02320152  RH  061%=      5-min Rain = 0
KEN1 120144Z 32012KT 23/15 A301 RMK A01 T02310151  RH  061%=      5-min Rain = 0
KEN1 120145Z 31011KT 23/15 A301 RMK A01 T02310152  RH  061%=      5-min Rain = 0
KEN1 120146Z 31011KT 23/15 A301 RMK A01 T02310152  RH  061%=      5-min Rain = 0
KEN1 120147Z 31013KT 23/15 A301 RMK A01 T02320152  RH  061%=      5-min Rain = 0
KEN1 120148Z 31013KT 23/15 A301 RMK A01 T02320152  RH  061%=      5-min Rain = 0
KEN1 120149Z 31011KT 23/15 A301 RMK A01 T02310152  RH  061%=      5-min Rain = 0
KEN1 120150Z 31013KT 23/15 A301 RMK A01 T02310151  RH  061%=      5-min Rain = 0
KEN1 120151Z 30011KT 23/15 A3009 RMK A01 T02310150  RH  061%=      5-min Rain = 0
KEN1 120152Z 30010KT 23/15 A3009 RMK A01 T02310150  RH  060%=      5-min Rain = 0
KEN1 120153Z 30012KT 23/15 A301 RMK A01 T02300148  RH  060%=      5-min Rain = 0
KEN1 120154Z 30012KT 23/15 A3009 RMK A01 T02300149  RH  060%=      5-min Rain = 0
KEN1 120155Z 31012KT 23/15 A3009 RMK A01 T02300149  RH  060%=      5-min Rain = 0
KEN1 120156Z 31013KT 23/15 A3009 RMK A01 T02300149  RH  060%=      5-min Rain = 0
KEN1 120157Z 30011KT 23/15 A3009 RMK A01 T02290149  RH  060%=      5-min Rain = 0
KEN1 120158Z 30010KT 23/15 A3009 RMK A01 T02290150  RH  061%=      5-min Rain = 0
KEN1 120159Z 30010KT 23/15 A3009 RMK A01 T02290150  RH  061%=      5-min Rain = 0
KEN1 120200Z 31011KT 23/15 A3009 RMK A01 T02280150  RH  062%=      5-min Rain = 0
KEN1 120201Z 30010KT 23/15 A3009 RMK A01 T02270151  RH  062%=      5-min Rain = 0
KEN1 120202Z 31010KT 23/15 A3009 RMK A01 T02260151  RH  063%=      5-min Rain = 0
KEN1 120203Z 31009KT 23/15 A3009 RMK A01 T02260152  RH  063%=      5-min Rain = 0
KEN1 120204Z 31009KT 23/15 A3009 RMK A01 T02250152  RH  063%=      5-min Rain = 0
KEN1 120205Z 31009KT 23/15 A3009 RMK A01 T02250152  RH  063%=      5-min Rain = 0
KEN1 120206Z 31009KT 23/15 A301 RMK A01 T02250153  RH  064%=      5-min Rain = 0
KEN1 120207Z 31008KT 23/15 A301 RMK A01 T02250153  RH  064%=      5-min Rain = 0
KEN1 120208Z 31007KT 22/15 A301 RMK A01 T02240153  RH  064%=      5-min Rain = 0
KEN1 120209Z 31007KT 23/15 A301 RMK A01 T02250154  RH  064%=      5-min Rain = 0
KEN1 120210Z 31006KT 23/15 A301 RMK A01 T02250154  RH  064%=      5-min Rain = 0
KEN1 120211Z 31005KT 22/15 A301 RMK A01 T02240154  RH  064%=      5-min Rain = 0
KEN1 120212Z 29004KT 22/15 A301 RMK A01 T02240154  RH  065%=      5-min Rain = 0
KEN1 120213Z 29005KT 22/15 A301 RMK A01 T02240154  RH  065%=      5-min Rain = 0
KEN1 120214Z 29004KT 22/15 A301 RMK A01 T02240154  RH  065%=      5-min Rain = 0
KEN1 120215Z 30004KT 22/15 A301 RMK A01 T02240154  RH  065%=      5-min Rain = 0
KEN1 120216Z 30003KT 22/15 A301 RMK A01 T02240154  RH  065%=      5-min Rain = 0
KEN1 120217Z 30002KT 22/16 A301 RMK A01 T02240155  RH  065%=      5-min Rain = 0
KEN1 120218Z 29003KT 22/15 A301 RMK A01 T02240154  RH  064%=      5-min Rain = 0
KEN1 120219Z 29002KT 22/15 A301 RMK A01 T02240154  RH  064%=      5-min Rain = 0
KEN1 120220Z 27002KT 22/15 A301 RMK A01 T02240154  RH  064%=      5-min Rain = 0
KEN1 120221Z 25001KT 22/15 A301 RMK A01 T02240154  RH  064%=      5-min Rain = 0
KEN1 120222Z 21002KT 23/15 A301 RMK A01 T02250154  RH  064%=      5-min Rain = 0
KEN1 120223Z 21003KT 23/15 A301 RMK A01 T02250154  RH  064%=      5-min Rain = 0
KEN1 120224Z 20003KT 22/15 A301 RMK A01 T02240154  RH  064%=      5-min Rain = 0
KEN1 120225Z 20003KT 23/15 A301 RMK A01 T02250154  RH  064%=      5-min Rain = 0
KEN1 120226Z 19004KT 23/15 A301 RMK A01 T02250154  RH  064%=      5-min Rain = 0
KEN1 120227Z 18003KT 23/15 A301 RMK A01 T02250154  RH  064%=      5-min Rain = 0
KEN1 120228Z 18003KT 22/15 A301 RMK A01 T02240154  RH  064%=      5-min Rain = 0
KEN1 120229Z 17003KT 22/15 A301 RMK A01 T02240154  RH  064%=      5-min Rain = 0
KEN1 120230Z 17003KT 22/15 A301 RMK A01 T02240154  RH  064%=      5-min Rain = 0
KEN1 120231Z 17003KT 22/15 A301 RMK A01 T02240153  RH  064%=      5-min Rain = 0
KEN1 120232Z 16003KT 22/15 A3011 RMK A01 T02240153  RH  064%=      5-min Rain = 0
KEN1 120233Z 15004KT 23/15 A3011 RMK A01 T02250154  RH  064%=      5-min Rain = 0
KEN1 120234Z 15004KT 23/15 A3011 RMK A01 T02250153  RH  064%=      5-min Rain = 0
KEN1 120235Z 14004KT 23/15 A3011 RMK A01 T02250153  RH  064%=      5-min Rain = 0
KEN1 120236Z 14004KT 23/15 A3011 RMK A01 T02250153  RH  064%=      5-min Rain = 0
KEN1 120237Z 15005KT 23/15 A3011 RMK A01 T02250153  RH  064%=      5-min Rain = 0
KEN1 120238Z 15004KT 23/15 A3011 RMK A01 T02250153  RH  064%=      5-min Rain = 0
KEN1 120239Z 16005KT 23/15 A3011 RMK A01 T02250153  RH  064%=      5-min Rain = 0
KEN1 120240Z 16005KT 23/15 A3011 RMK A01 T02260153  RH  063%=      5-min Rain = 0
KEN1 120241Z 16005KT 23/15 A3011 RMK A01 T02250152  RH  063%=      5-min Rain = 0
KEN1 120242Z 16005KT 23/15 A3011 RMK A01 T02260153  RH  063%=      5-min Rain = 0
KEN1 120243Z 16006KT 23/15 A3011 RMK A01 T02260152  RH  063%=      5-min Rain = 0
KEN1 120244Z 16006KT 23/15 A3011 RMK A01 T02260152  RH  063%=      5-min Rain = 0
KEN1 120245Z 15006KT 23/15 A3011 RMK A01 T02260152  RH  063%=      5-min Rain = 0
KEN1 120246Z 15006KT 23/15 A3011 RMK A01 T02270152  RH  063%=      5-min Rain = 0
KEN1 120247Z 15006KT 23/15 A3011 RMK A01 T02270152  RH  063%=      5-min Rain = 0
KEN1 120248Z 16006KT 23/15 A3011 RMK A01 T02270151  RH  062%=      5-min Rain = 0
KEN1 120249Z 16006KT 23/15 A3011 RMK A01 T02270151  RH  062%=      5-min Rain = 0
KEN1 120250Z 16007KT 23/15 A3011 RMK A01 T02270152  RH  062%=      5-min Rain = 0
KEN1 120251Z 16007KT 23/15 A3011 RMK A01 T02270152  RH  063%=      5-min Rain = 0
KEN1 120252Z 16006KT 23/15 A3011 RMK A01 T02270152  RH  063%=      5-min Rain = 0
KEN1 120253Z 16006KT 23/15 A3011 RMK A01 T02270153  RH  063%=      5-min Rain = 0
KEN1 120254Z 17006KT 23/15 A3011 RMK A01 T02270153  RH  063%=      5-min Rain = 0
KEN1 120255Z 17006KT 23/15 A3011 RMK A01 T02270153  RH  063%=      5-min Rain = 0
KEN1 120256Z 16006KT 23/15 A3011 RMK A01 T02270153  RH  063%=      5-min Rain = 0
KEN1 120257Z 16007KT 23/15 A3011 RMK A01 T02270154  RH  063%=      5-min Rain = 0
KEN1 120258Z 17007KT 23/15 A3011 RMK A01 T02270154  RH  063%=      5-min Rain = 0
KEN1 120259Z 17006KT 23/15 A3011 RMK A01 T02270154  RH  063%=      5-min Rain = 0
KEN1 120300Z 17008KT 23/16 A3011 RMK A01 T02270156  RH  064%=      5-min Rain = 0
KEN1 120301Z 16008KT 23/16 A3011 RMK A01 T02260157  RH  065%=      5-min Rain = 0
KEN1 120302Z 17007KT 23/16 A3011 RMK A01 T02250157  RH  066%=      5-min Rain = 0
KEN1 120303Z 17006KT 22/16 A3011 RMK A01 T02240158  RH  066%=      5-min Rain = 0
KEN1 120304Z 18006KT 22/16 A3011 RMK A01 T02230158  RH  066%=      5-min Rain = 0
KEN1 120305Z 18006KT 22/16 A3011 RMK A01 T02230158  RH  067%=      5-min Rain = 0
KEN1 120306Z 17005KT 22/16 A3011 RMK A01 T02220158  RH  067%=      5-min Rain = 0
KEN1 120307Z 17005KT 22/16 A3011 RMK A01 T02220158  RH  067%=      5-min Rain = 0
KEN1 120308Z 17006KT 22/16 A3011 RMK A01 T02220158  RH  067%=      5-min Rain = 0
KEN1 120309Z 15005KT 22/16 A3011 RMK A01 T02220158  RH  067%=      5-min Rain = 0
KEN1 120310Z 15005KT 22/16 A3011 RMK A01 T02220158  RH  067%=      5-min Rain = 0
KEN1 120311Z 15005KT 22/16 A3011 RMK A01 T02210158  RH  067%=      5-min Rain = 0
KEN1 120312Z 15007KT 22/16 A3011 RMK A01 T02220159  RH  067%=      5-min Rain = 0
KEN1 120313Z 14007KT 22/16 A3011 RMK A01 T02210158  RH  067%=      5-min Rain = 0
KEN1 120314Z 14008KT 22/16 A3011 RMK A01 T02210158  RH  067%=      5-min Rain = 0
KEN1 120315Z 14008KT 22/16 A3011 RMK A01 T02210158  RH  067%=      5-min Rain = 0
KEN1 120316Z 13008KT 22/16 A3011 RMK A01 T02210158  RH  067%=      5-min Rain = 0
KEN1 120317Z 14007KT 22/16 A3011 RMK A01 T02210158  RH  067%=      5-min Rain = 0
KEN1 120318Z 14008KT 22/16 A3011 RMK A01 T02210158  RH  067%=      5-min Rain = 0
KEN1 120319Z 14008KT 22/16 A3011 RMK A01 T02210159  RH  068%=      5-min Rain = 0
KEN1 120320Z 14008KT 22/16 A3011 RMK A01 T02210159  RH  068%=      5-min Rain = 0
KEN1 120321Z 14008KT 22/16 A3011 RMK A01 T02200159  RH  068%=      5-min Rain = 0
KEN1 120322Z 15008KT 22/16 A3011 RMK A01 T02200159  RH  068%=      5-min Rain = 0
KEN1 120323Z 15008KT 22/16 A3011 RMK A01 T02200158  RH  068%=      5-min Rain = 0
KEN1 120324Z 16007KT 22/16 A3011 RMK A01 T02200158  RH  068%=      5-min Rain = 0
KEN1 120325Z 15007KT 22/16 A3011 RMK A01 T02200158  RH  068%=      5-min Rain = 0
KEN1 120326Z 15006KT 22/16 A3011 RMK A01 T02200159  RH  068%=      5-min Rain = 0
KEN1 120327Z 14006KT 22/16 A3011 RMK A01 T02200159  RH  068%=      5-min Rain = 0
KEN1 120328Z 14006KT 22/16 A3011 RMK A01 T02200159  RH  068%=      5-min Rain = 0
KEN1 120329Z 14006KT 22/16 A3011 RMK A01 T02200159  RH  068%=      5-min Rain = 0
KEN1 120330Z 14007KT 22/16 A3012 RMK A01 T02200159  RH  068%=      5-min Rain = 0
KEN1 120331Z 15007KT 22/16 A3012 RMK A01 T02200159  RH  068%=      5-min Rain = 0
KEN1 120332Z 14007KT 22/16 A3012 RMK A01 T02200159  RH  068%=      5-min Rain = 0
KEN1 120333Z 15007KT 22/16 A3012 RMK A01 T02200159  RH  068%=      5-min Rain = 0
KEN1 120334Z 14007KT 22/16 A3012 RMK A01 T02200159  RH  068%=      5-min Rain = 0
KEN1 120335Z 14007KT 22/16 A3012 RMK A01 T02200159  RH  068%=      5-min Rain = 0
KEN1 120336Z 15006KT 22/16 A3012 RMK A01 T02200159  RH  068%=      5-min Rain = 0
KEN1 120337Z 15007KT 22/16 A3012 RMK A01 T02200159  RH  068%=      5-min Rain = 0
KEN1 120338Z 15007KT 22/16 A3012 RMK A01 T02200159  RH  068%=      5-min Rain = 0
KEN1 120339Z 15006KT 22/16 A3012 RMK A01 T02200159  RH  069%=      5-min Rain = 0
KEN1 120340Z 15005KT 22/16 A3012 RMK A01 T02190159  RH  069%=      5-min Rain = 0
KEN1 120341Z 15006KT 22/16 A3011 RMK A01 T02190159  RH  069%=      5-min Rain = 0
KEN1 120342Z 16006KT 22/16 A3011 RMK A01 T02200159  RH  068%=      5-min Rain = 0
KEN1 120343Z 16005KT 22/16 A3011 RMK A01 T02190159  RH  068%=      5-min Rain = 0
KEN1 120344Z 16005KT 22/16 A3011 RMK A01 T02200159  RH  068%=      5-min Rain = 0
KEN1 120345Z 15006KT 22/16 A3011 RMK A01 T02190158  RH  068%=      5-min Rain = 0
KEN1 120346Z 16006KT 22/16 A3011 RMK A01 T02200158  RH  068%=      5-min Rain = 0
KEN1 120347Z 16006KT 22/16 A3011 RMK A01 T02190158  RH  068%=      5-min Rain = 0
KEN1 120348Z 17006KT 22/16 A3011 RMK A01 T02190158  RH  068%=      5-min Rain = 0
KEN1 120349Z 17006KT 22/16 A3011 RMK A01 T02190158  RH  068%=      5-min Rain = 0
KEN1 120350Z 17005KT 22/16 A3011 RMK A01 T02190158  RH  068%=      5-min Rain = 0
KEN1 120351Z 17005KT 22/16 A3011 RMK A01 T02190159  RH  069%=      5-min Rain = 0
KEN1 120352Z 17005KT 22/16 A3011 RMK A01 T02190159  RH  068%=      5-min Rain = 0
KEN1 120353Z 18005KT 22/16 A3011 RMK A01 T02190158  RH  068%=      5-min Rain = 0
KEN1 120354Z 18005KT 22/16 A3011 RMK A01 T02190158  RH  068%=      5-min Rain = 0
KEN1 120355Z 19004KT 22/16 A3011 RMK A01 T02190158  RH  068%=      5-min Rain = 0
KEN1 120356Z 19003KT 22/16 A3011 RMK A01 T02190158  RH  068%=      5-min Rain = 0
KEN1 120357Z 19003KT 22/16 A3011 RMK A01 T02180158  RH  068%=      5-min Rain = 0
KEN1 120358Z 18003KT 22/16 A3011 RMK A01 T02180158  RH  068%=      5-min Rain = 0
KEN1 120359Z 17003KT 22/16 A3011 RMK A01 T02190158  RH  068%=      5-min Rain = 0
KEN1 120400Z 16004KT 22/16 A3012 RMK A01 T02190158  RH  068%=      5-min Rain = 0
KEN1 120401Z 16005KT 22/16 A3012 RMK A01 T02180158  RH  068%=      5-min Rain = 0
KEN1 120402Z 16005KT 22/16 A3012 RMK A01 T02190158  RH  068%=      5-min Rain = 0
KEN1 120403Z 17006KT 22/16 A3012 RMK A01 T02180157  RH  068%=      5-min Rain = 0
KEN1 120404Z 17006KT 22/16 A3012 RMK A01 T02190157  RH  068%=      5-min Rain = 0
KEN1 120405Z 17006KT 22/16 A3012 RMK A01 T02190157  RH  068%=      5-min Rain = 0
KEN1 120406Z 16006KT 22/16 A3012 RMK A01 T02190157  RH  068%=      5-min Rain = 0
KEN1 120407Z 16006KT 22/16 A3012 RMK A01 T02190157  RH  068%=      5-min Rain = 0
KEN1 120408Z 16006KT 22/16 A3012 RMK A01 T02180157  RH  068%=      5-min Rain = 0
KEN1 120409Z 16006KT 22/16 A3012 RMK A01 T02180157  RH  068%=      5-min Rain = 0
KEN1 120410Z 16006KT 22/16 A3012 RMK A01 T02190158  RH  068%=      5-min Rain = 0
KEN1 120411Z 15006KT 22/16 A3012 RMK A01 T02180157  RH  068%=      5-min Rain = 0
KEN1 120412Z 15006KT 22/16 A3012 RMK A01 T02180157  RH  068%=      5-min Rain = 0
KEN1 120413Z 15007KT 22/16 A3012 RMK A01 T02180157  RH  068%=      5-min Rain = 0
KEN1 120414Z 15006KT 22/16 A3012 RMK A01 T02180157  RH  068%=      5-min Rain = 0
KEN1 120415Z 16007KT 22/16 A3012 RMK A01 T02180157  RH  068%=      5-min Rain = 0
KEN1 120416Z 15007KT 22/16 A3012 RMK A01 T02180157  RH  068%=      5-min Rain = 0
KEN1 120417Z 16007KT 22/16 A3012 RMK A01 T02180157  RH  068%=      5-min Rain = 0
KEN1 120418Z 16006KT 22/16 A3012 RMK A01 T02180157  RH  068%=      5-min Rain = 0
KEN1 120419Z 15007KT 22/16 A3012 RMK A01 T02180157  RH  068%=      5-min Rain = 0
KEN1 120420Z 16007KT 22/16 A3012 RMK A01 T02190157  RH  068%=      5-min Rain = 0
KEN1 120421Z 16006KT 22/16 A3012 RMK A01 T02190157  RH  068%=      5-min Rain = 0
KEN1 120422Z 15006KT 22/16 A3012 RMK A01 T02180157  RH  068%=      5-min Rain = 0
KEN1 120423Z 16006KT 22/16 A3012 RMK A01 T02180157  RH  068%=      5-min Rain = 0
KEN1 120424Z 16005KT 22/16 A3012 RMK A01 T02180157  RH  068%=      5-min Rain = 0
KEN1 120425Z 16005KT 22/16 A3012 RMK A01 T02190158  RH  068%=      5-min Rain = 0
KEN1 120426Z 16005KT 22/16 A3012 RMK A01 T02180157  RH  068%=      5-min Rain = 0
KEN1 120427Z 16005KT 22/16 A3012 RMK A01 T02190158  RH  068%=      5-min Rain = 0
KEN1 120428Z 16005KT 22/16 A3012 RMK A01 T02190158  RH  068%=      5-min Rain = 0
KEN1 120429Z 16005KT 22/16 A3012 RMK A01 T02190158  RH  068%=      5-min Rain = 0
KEN1 120430Z 16005KT 22/16 A3011 RMK A01 T02180157  RH  068%=      5-min Rain = 0
KEN1 120431Z 16005KT 22/16 A3011 RMK A01 T02180157  RH  068%=      5-min Rain = 0
KEN1 120432Z 16005KT 22/16 A3011 RMK A01 T02180157  RH  068%=      5-min Rain = 0
KEN1 120433Z 15005KT 22/16 A3011 RMK A01 T02180157  RH  068%=      5-min Rain = 0
KEN1 120434Z 16005KT 22/16 A3011 RMK A01 T02180157  RH  068%=      5-min Rain = 0
KEN1 120435Z 16005KT 22/16 A3011 RMK A01 T02180157  RH  068%=      5-min Rain = 0
KEN1 120436Z 16006KT 22/16 A3011 RMK A01 T02180157  RH  068%=      5-min Rain = 0
KEN1 120437Z 16006KT 22/16 A3011 RMK A01 T02180157  RH  068%=      5-min Rain = 0
KEN1 120438Z 16007KT 22/16 A3011 RMK A01 T02180157  RH  068%=      5-min Rain = 0
KEN1 120439Z 16007KT 22/16 A3011 RMK A01 T02180157  RH  068%=      5-min Rain = 0
KEN1 120440Z 15007KT 22/16 A3011 RMK A01 T02180156  RH  068%=      5-min Rain = 0
KEN1 120441Z 16007KT 22/16 A3011 RMK A01 T02180157  RH  068%=      5-min Rain = 0
KEN1 120442Z 15008KT 22/16 A3011 RMK A01 T02180157  RH  068%=      5-min Rain = 0
KEN1 120443Z 15007KT 22/16 A3011 RMK A01 T02180156  RH  068%=      5-min Rain = 0
KEN1 120444Z 15008KT 22/16 A3011 RMK A01 T02190157  RH  068%=      5-min Rain = 0
KEN1 120445Z 15008KT 22/16 A3011 RMK A01 T02190157  RH  068%=      5-min Rain = 0
KEN1 120446Z 15008KT 22/16 A3011 RMK A01 T02190157  RH  068%=      5-min Rain = 0
KEN1 120447Z 15008KT 22/16 A3012 RMK A01 T02190157  RH  068%=      5-min Rain = 0
KEN1 120448Z 16009KT 22/16 A3012 RMK A01 T02190157  RH  068%=      5-min Rain = 0
KEN1 120449Z 15009KT 22/16 A3012 RMK A01 T02190158  RH  068%=      5-min Rain = 0
KEN1 120450Z 15008KT 22/16 A3012 RMK A01 T02190158  RH  068%=      5-min Rain = 0
KEN1 120451Z 15008KT 22/16 A3012 RMK A01 T02190158  RH  068%=      5-min Rain = 0
KEN1 120452Z 16008KT 22/16 A3012 RMK A01 T02180158  RH  068%=      5-min Rain = 0
KEN1 120453Z 15008KT 22/16 A3012 RMK A01 T02190158  RH  069%=      5-min Rain = 0
KEN1 120454Z 16008KT 22/16 A3012 RMK A01 T02180158  RH  069%=      5-min Rain = 0
KEN1 120455Z 16008KT 22/16 A3012 RMK A01 T02180158  RH  069%=      5-min Rain = 0
KEN1 120456Z 16008KT 22/16 A3012 RMK A01 T02180158  RH  069%=      5-min Rain = 0
KEN1 120457Z 16007KT 22/16 A3012 RMK A01 T02180159  RH  069%=      5-min Rain = 0
KEN1 120458Z 15006KT 22/16 A3012 RMK A01 T02170159  RH  069%=      5-min Rain = 0
KEN1 120459Z 14006KT 22/16 A3012 RMK A01 T02160159  RH  070%=      5-min Rain = 0
KEN1 120500Z 14006KT 22/16 A3012 RMK A01 T02160159  RH  070%=      5-min Rain = 0

Page generated in 0.049 seconds.